Observation data for Boys Ranch on 11/13/2019      Previous  Date       Current Mesonet Observations  Soil Data  Daily Summary Page  Observations in Plain Language
KBY1 130600Z 28003KT 00/M08 A3007 RMK A01 T00021084  RH  052%=      5-min Rain = 0
KBY1 130601Z 27002KT 00/M08 A3007 RMK A01 T00041083  RH  052%=      5-min Rain = 0
KBY1 130602Z 27002KT 01/M08 A3007 RMK A01 T00061083  RH  051%=      5-min Rain = 0
KBY1 130603Z 27002KT 01/M08 A3007 RMK A01 T00071083  RH  051%=      5-min Rain = 0
KBY1 130604Z 25003KT 01/M08 A3007 RMK A01 T00101082  RH  050%=      5-min Rain = 0
KBY1 130605Z 25002KT 01/M08 A3007 RMK A01 T00121082  RH  049%=      5-min Rain = 0
KBY1 130606Z 24002KT 01/M08 A3006 RMK A01 T00131083  RH  049%=      5-min Rain = 0
KBY1 130607Z 25002KT 01/M08 A3006 RMK A01 T00111084  RH  049%=      5-min Rain = 0
KBY1 130608Z 24002KT 01/M09 A3006 RMK A01 T00091085  RH  049%=      5-min Rain = 0
KBY1 130609Z 25002KT 01/M09 A3006 RMK A01 T00071085  RH  050%=      5-min Rain = 0
KBY1 130610Z 26002KT 01/M09 A3006 RMK A01 T00051085  RH  051%=      5-min Rain = 0
KBY1 130611Z 27001KT 00/M09 A3006 RMK A01 T00031085  RH  051%=      5-min Rain = 0
KBY1 130612Z 25002KT 00/M08 A3006 RMK A01 T00041084  RH  052%=      5-min Rain = 0
KBY1 130613Z 25002KT 00/M09 A3006 RMK A01 T00031085  RH  052%=      5-min Rain = 0
KBY1 130614Z 25002KT 00/M08 A3006 RMK A01 T00031084  RH  052%=      5-min Rain = 0
KBY1 130615Z 24002KT 00/M08 A3006 RMK A01 T00031084  RH  052%=      5-min Rain = 0
KBY1 130616Z 22002KT 00/M08 A3006 RMK A01 T00031084  RH  052%=      5-min Rain = 0
KBY1 130617Z 25001KT 00/M09 A3006 RMK A01 T00031085  RH  052%=      5-min Rain = 0
KBY1 130618Z 26001KT 00/M09 A3006 RMK A01 T00011086  RH  052%=      5-min Rain = 0
KBY1 130619Z 24002KT 00/M09 A3006 RMK A01 T00011085  RH  053%=      5-min Rain = 0
KBY1 130620Z 25001KT 00/M08 A3006 RMK A01 T00021084  RH  052%=      5-min Rain = 0
KBY1 130621Z 25001KT 00/M08 A3006 RMK A01 T00031083  RH  052%=      5-min Rain = 0
KBY1 130622Z 29001KT 00/M08 A3006 RMK A01 T00041084  RH  052%=      5-min Rain = 0
KBY1 130623Z 28002KT 00/M09 A3006 RMK A01 T00011086  RH  052%=      5-min Rain = 0
KBY1 130624Z 26001KT M00/M09 A3006 RMK A01 T10021086  RH  053%=      5-min Rain = 0
KBY1 130625Z 26001KT M00/M09 A3006 RMK A01 T10021085  RH  054%=      5-min Rain = 0
KBY1 130626Z 26002KT M00/M08 A3006 RMK A01 T10021084  RH  054%=      5-min Rain = 0
KBY1 130627Z 25003KT M00/M09 A3006 RMK A01 T10031085  RH  054%=      5-min Rain = 0
KBY1 130628Z 23001KT M00/M08 A3006 RMK A01 T10031084  RH  054%=      5-min Rain = 0
KBY1 130629Z 28002KT M00/M09 A3006 RMK A01 T10041085  RH  054%=      5-min Rain = 0
KBY1 130630Z 27003KT M01/M09 A3006 RMK A01 T10071087  RH  055%=      5-min Rain = 0
KBY1 130631Z 25002KT M01/M09 A3006 RMK A01 T10101087  RH  056%=      5-min Rain = 0
KBY1 130632Z 25001KT M01/M09 A3006 RMK A01 T10121088  RH  056%=      5-min Rain = 0
KBY1 130633Z 23002KT M02/M09 A3006 RMK A01 T10161091  RH  057%=      5-min Rain = 0
KBY1 130634Z 25001KT M02/M09 A3006 RMK A01 T10201091  RH  058%=      5-min Rain = 0
KBY1 130635Z 27002KT M02/M09 A3006 RMK A01 T10221089  RH  060%=      5-min Rain = 0
KBY1 130636Z 25002KT M02/M09 A3006 RMK A01 T10211087  RH  061%=      5-min Rain = 0
KBY1 130637Z 26002KT M02/M09 A3006 RMK A01 T10211086  RH  061%=      5-min Rain = 0
KBY1 130638Z 25002KT M02/M09 A3006 RMK A01 T10191085  RH  061%=      5-min Rain = 0
KBY1 130639Z 24003KT M01/M08 A3006 RMK A01 T10131081  RH  060%=      5-min Rain = 0
KBY1 130640Z 24002KT M01/M08 A3005 RMK A01 T10081079  RH  058%=      5-min Rain = 0
KBY1 130641Z 24002KT M01/M08 A3005 RMK A01 T10061081  RH  057%=      5-min Rain = 0
KBY1 130642Z 25003KT M00/M08 A3005 RMK A01 T10041081  RH  056%=      5-min Rain = 0
KBY1 130643Z 23003KT M00/M08 A3005 RMK A01 T10011081  RH  055%=      5-min Rain = 0
KBY1 130644Z 23003KT 00/08 A3005 RMK A01 T00000-82  RH  054%=      5-min Rain = 0
KBY1 130645Z 24003KT 00/08 A3005 RMK A01 T00000-82  RH  054%=      5-min Rain = 0
KBY1 130646Z 23004KT 00/08 A3005 RMK A01 T00000-82  RH  054%=      5-min Rain = 0
KBY1 130647Z 24003KT 00/08 A3005 RMK A01 T00-00-83  RH  054%=      5-min Rain = 0
KBY1 130648Z 23005KT 00/08 A3005 RMK A01 T00000-82  RH  054%=      5-min Rain = 0
KBY1 130649Z 24007KT 00/M08 A3005 RMK A01 T00031080  RH  054%=      5-min Rain = 0
KBY1 130650Z 22005KT 01/M08 A3005 RMK A01 T00081077  RH  053%=      5-min Rain = 0
KBY1 130651Z 23005KT 01/M08 A3005 RMK A01 T00081078  RH  053%=      5-min Rain = 0
KBY1 130652Z 25006KT 01/M08 A3005 RMK A01 T00061080  RH  053%=      5-min Rain = 0
KBY1 130653Z 23005KT 01/M08 A3005 RMK A01 T00071079  RH  053%=      5-min Rain = 0
KBY1 130654Z 24005KT 01/M08 A3005 RMK A01 T00081079  RH  052%=      5-min Rain = 0
KBY1 130655Z 24005KT 01/M08 A3005 RMK A01 T00061081  RH  052%=      5-min Rain = 0
KBY1 130656Z 25004KT 00/M08 A3005 RMK A01 T00041082  RH  053%=      5-min Rain = 0
KBY1 130657Z 25004KT 00/M08 A3005 RMK A01 T00021082  RH  053%=      5-min Rain = 0
KBY1 130658Z 25004KT 00/M08 A3004 RMK A01 T00011081  RH  054%=      5-min Rain = 0
KBY1 130659Z 25004KT 00/M08 A3004 RMK A01 T00011081  RH  054%=      5-min Rain = 0
KBY1 130700Z 26004KT 00/M08 A3004 RMK A01 T00031079  RH  054%=      5-min Rain = 0
KBY1 130701Z 26004KT 01/M08 A3004 RMK A01 T00051078  RH  054%=      5-min Rain = 0
KBY1 130702Z 26003KT 01/M08 A3004 RMK A01 T00061078  RH  053%=      5-min Rain = 0
KBY1 130703Z 26003KT 01/M08 A3004 RMK A01 T00071078  RH  053%=      5-min Rain = 0
KBY1 130704Z 26004KT 01/M08 A3004 RMK A01 T00071078  RH  053%=      5-min Rain = 0
KBY1 130705Z 26004KT 01/M08 A3004 RMK A01 T00081078  RH  052%=      5-min Rain = 0
KBY1 130706Z 25004KT 01/M08 A3004 RMK A01 T00081079  RH  052%=      5-min Rain = 0
KBY1 130707Z 26004KT 01/M08 A3004 RMK A01 T00081079  RH  052%=      5-min Rain = 0
KBY1 130708Z 25004KT 01/M08 A3004 RMK A01 T00091078  RH  052%=      5-min Rain = 0
KBY1 130709Z 25004KT 01/M08 A3004 RMK A01 T00111076  RH  052%=      5-min Rain = 0
KBY1 130710Z 25004KT 01/M08 A3004 RMK A01 T00111076  RH  052%=      5-min Rain = 0
KBY1 130711Z 25003KT 01/M08 A3004 RMK A01 T00131076  RH  052%=      5-min Rain = 0
KBY1 130712Z 25004KT 01/M08 A3004 RMK A01 T00141076  RH  051%=      5-min Rain = 0
KBY1 130713Z 26003KT 01/M08 A3004 RMK A01 T00141076  RH  051%=      5-min Rain = 0
KBY1 130714Z 25004KT 01/M08 A3004 RMK A01 T00131077  RH  051%=      5-min Rain = 0
KBY1 130715Z 25004KT 01/M08 A3004 RMK A01 T00131077  RH  051%=      5-min Rain = 0
KBY1 130716Z 24003KT 01/M08 A3004 RMK A01 T00141076  RH  051%=      5-min Rain = 0
KBY1 130717Z 25003KT 01/M08 A3004 RMK A01 T00111078  RH  051%=      5-min Rain = 0
KBY1 130718Z 24003KT 01/M08 A3004 RMK A01 T00061082  RH  052%=      5-min Rain = 0
KBY1 130719Z 25002KT 00/M08 A3004 RMK A01 T00011083  RH  053%=      5-min Rain = 0
KBY1 130720Z 25002KT M00/M08 A3004 RMK A01 T10021082  RH  055%=      5-min Rain = 0
KBY1 130721Z 25003KT M00/M08 A3003 RMK A01 T10021080  RH  056%=      5-min Rain = 0
KBY1 130722Z 23003KT 00/08 A3003 RMK A01 T00-00-79  RH  055%=      5-min Rain = 0
KBY1 130723Z 25003KT 00/08 A3003 RMK A01 T00000-80  RH  055%=      5-min Rain = 0
KBY1 130724Z 24004KT 00/08 A3003 RMK A01 T00-00-81  RH  055%=      5-min Rain = 0
KBY1 130725Z 24004KT 00/08 A3003 RMK A01 T00-00-81  RH  055%=      5-min Rain = 0
KBY1 130726Z 25003KT M00/M08 A3003 RMK A01 T10011081  RH  055%=      5-min Rain = 0
KBY1 130727Z 25003KT M00/M08 A3003 RMK A01 T10021081  RH  055%=      5-min Rain = 0
KBY1 130728Z 25003KT M00/M08 A3003 RMK A01 T10011080  RH  055%=      5-min Rain = 0
KBY1 130729Z 25003KT 00/08 A3003 RMK A01 T00-00-80  RH  055%=      5-min Rain = 0
KBY1 130730Z 25003KT 00/08 A3004 RMK A01 T00-00-80  RH  055%=      5-min Rain = 0
KBY1 130731Z 25002KT M00/M08 A3004 RMK A01 T10021084  RH  054%=      5-min Rain = 0
KBY1 130732Z 25002KT M01/M10 A3004 RMK A01 T10131096  RH  053%=      5-min Rain = 0
KBY1 130733Z 25002KT M03/M10 A3004 RMK A01 T10281103  RH  056%=      5-min Rain = 0
KBY1 130734Z 25001KT M04/M10 A3004 RMK A01 T10361102  RH  060%=      5-min Rain = 0
KBY1 130735Z 00000KT M04/M10 A3004 RMK A01 T10401099  RH  064%=      5-min Rain = 0
KBY1 130736Z 00000KT M04/M10 A3004 RMK A01 T10431095  RH  067%=      5-min Rain = 0
KBY1 130737Z 00000KT M04/M09 A3004 RMK A01 T10431092  RH  069%=      5-min Rain = 0
KBY1 130738Z 00000KT M04/M09 A3004 RMK A01 T10411088  RH  070%=      5-min Rain = 0
KBY1 130739Z 00000KT M04/M09 A3004 RMK A01 T10381085  RH  070%=      5-min Rain = 0
KBY1 130740Z 00000KT M04/M09 A3003 RMK A01 T10371085  RH  069%=      5-min Rain = 0
KBY1 130741Z 00000KT M04/M09 A3003 RMK A01 T10361085  RH  069%=      5-min Rain = 0
KBY1 130742Z 00000KT M03/M08 A3003 RMK A01 T10331084  RH  068%=      5-min Rain = 0
KBY1 130743Z 00000KT M03/M08 A3003 RMK A01 T10311084  RH  067%=      5-min Rain = 0
KBY1 130744Z 00000KT M03/M09 A3003 RMK A01 T10301085  RH  066%=      5-min Rain = 0
KBY1 130745Z 00000KT M03/M08 A3003 RMK A01 T10281083  RH  066%=      5-min Rain = 0
KBY1 130746Z 00000KT M03/M08 A3003 RMK A01 T10251082  RH  065%=      5-min Rain = 0
KBY1 130747Z 00000KT M02/M08 A3003 RMK A01 T10231081  RH  064%=      5-min Rain = 0
KBY1 130748Z 00000KT M02/M08 A3003 RMK A01 T10211081  RH  063%=      5-min Rain = 0
KBY1 130749Z 00000KT M02/M08 A3003 RMK A01 T10191081  RH  063%=      5-min Rain = 0
KBY1 130750Z 00000KT M02/M08 A3003 RMK A01 T10171081  RH  062%=      5-min Rain = 0
KBY1 130751Z 00000KT M02/M08 A3003 RMK A01 T10151080  RH  061%=      5-min Rain = 0
KBY1 130752Z 00000KT M01/M08 A3003 RMK A01 T10141080  RH  061%=      5-min Rain = 0
KBY1 130753Z 00000KT M01/M08 A3003 RMK A01 T10131079  RH  061%=      5-min Rain = 0
KBY1 130754Z 00000KT M01/M08 A3003 RMK A01 T10121078  RH  061%=      5-min Rain = 0
KBY1 130755Z 00000KT M01/M08 A3003 RMK A01 T10101077  RH  061%=      5-min Rain = 0
KBY1 130756Z 00000KT M01/M08 A3003 RMK A01 T10091077  RH  060%=      5-min Rain = 0
KBY1 130757Z 00000KT M01/M08 A3002 RMK A01 T10091077  RH  060%=      5-min Rain = 0
KBY1 130758Z 00000KT M01/M08 A3002 RMK A01 T10101079  RH  059%=      5-min Rain = 0
KBY1 130759Z 27001KT M01/M08 A3002 RMK A01 T10131082  RH  060%=      5-min Rain = 0
KBY1 130800Z 27001KT M02/M08 A3002 RMK A01 T10151082  RH  060%=      5-min Rain = 0
KBY1 130801Z 27001KT M02/M08 A3002 RMK A01 T10171082  RH  061%=      5-min Rain = 0
KBY1 130802Z 26002KT M02/M08 A3002 RMK A01 T10161079  RH  062%=      5-min Rain = 0
KBY1 130803Z 27001KT M01/M08 A3002 RMK A01 T10131078  RH  061%=      5-min Rain = 0
KBY1 130804Z 27002KT M01/M08 A3002 RMK A01 T10121079  RH  060%=      5-min Rain = 0
KBY1 130805Z 26001KT M01/M08 A3002 RMK A01 T10131082  RH  060%=      5-min Rain = 0
KBY1 130806Z 27002KT M02/M08 A3002 RMK A01 T10151083  RH  060%=      5-min Rain = 0
KBY1 130807Z 26001KT M02/M08 A3002 RMK A01 T10171083  RH  061%=      5-min Rain = 0
KBY1 130808Z 26001KT M02/M08 A3002 RMK A01 T10181082  RH  062%=      5-min Rain = 0
KBY1 130809Z 25001KT M02/M08 A3002 RMK A01 T10191082  RH  062%=      5-min Rain = 0
KBY1 130810Z 25000KT M02/M08 A3002 RMK A01 T10191081  RH  062%=      5-min Rain = 0
KBY1 130811Z 26001KT M02/M09 A3002 RMK A01 T10221086  RH  061%=      5-min Rain = 0
KBY1 130812Z 25001KT M03/M09 A3002 RMK A01 T10251087  RH  062%=      5-min Rain = 0
KBY1 130813Z 25001KT M03/M09 A3002 RMK A01 T10271086  RH  064%=      5-min Rain = 0
KBY1 130814Z 25001KT M03/M09 A3002 RMK A01 T10291086  RH  065%=      5-min Rain = 0
KBY1 130815Z 24001KT M03/M08 A3002 RMK A01 T10291084  RH  066%=      5-min Rain = 0
KBY1 130816Z 24002KT M03/M08 A3001 RMK A01 T10291084  RH  066%=      5-min Rain = 0
KBY1 130817Z 25002KT M03/M08 A3001 RMK A01 T10301084  RH  066%=      5-min Rain = 0
KBY1 130818Z 26002KT M03/M08 A3001 RMK A01 T10301083  RH  067%=      5-min Rain = 0
KBY1 130819Z 26002KT M03/M08 A3001 RMK A01 T10261078  RH  067%=      5-min Rain = 0
KBY1 130820Z 27003KT M02/M07 A3001 RMK A01 T10191074  RH  066%=      5-min Rain = 0
KBY1 130821Z 26003KT M01/M07 A3001 RMK A01 T10121072  RH  064%=      5-min Rain = 0
KBY1 130822Z 26003KT M01/M07 A3001 RMK A01 T10071071  RH  062%=      5-min Rain = 0
KBY1 130823Z 26003KT M00/M07 A3001 RMK A01 T10031072  RH  060%=      5-min Rain = 0
KBY1 130824Z 26004KT M00/M07 A3001 RMK A01 T10021073  RH  059%=      5-min Rain = 0
KBY1 130825Z 25004KT M00/M07 A3001 RMK A01 T10021074  RH  058%=      5-min Rain = 0
KBY1 130826Z 24004KT M00/M08 A3001 RMK A01 T10021076  RH  058%=      5-min Rain = 0
KBY1 130827Z 24004KT M00/M08 A3001 RMK A01 T10041077  RH  058%=      5-min Rain = 0
KBY1 130828Z 24004KT M01/M08 A3001 RMK A01 T10071078  RH  059%=      5-min Rain = 0
KBY1 130829Z 25004KT M01/M08 A3001 RMK A01 T10081078  RH  059%=      5-min Rain = 0
KBY1 130830Z 25005KT M01/M08 A3001 RMK A01 T10091077  RH  060%=      5-min Rain = 0
KBY1 130831Z 25004KT M01/M08 A3001 RMK A01 T10081076  RH  060%=      5-min Rain = 0
KBY1 130832Z 26003KT M01/M08 A3001 RMK A01 T10091076  RH  060%=      5-min Rain = 0
KBY1 130833Z 26003KT M01/M08 A3001 RMK A01 T10081075  RH  061%=      5-min Rain = 0
KBY1 130834Z 25003KT M01/M07 A3001 RMK A01 T10071074  RH  060%=      5-min Rain = 0
KBY1 130835Z 26003KT M01/M07 A3001 RMK A01 T10061074  RH  060%=      5-min Rain = 0
KBY1 130836Z 26003KT M01/M07 A3001 RMK A01 T10051074  RH  059%=      5-min Rain = 0
KBY1 130837Z 26003KT M01/M08 A3001 RMK A01 T10051075  RH  059%=      5-min Rain = 0
KBY1 130838Z 25003KT M00/M07 A3001 RMK A01 T10041074  RH  059%=      5-min Rain = 0
KBY1 130839Z 25003KT M00/M07 A3001 RMK A01 T10041074  RH  059%=      5-min Rain = 0
KBY1 130840Z 25003KT M00/M08 A30 RMK A01 T10041075  RH  059%=      5-min Rain = 0
KBY1 130841Z 26002KT M00/M08 A30 RMK A01 T10041075  RH  059%=      5-min Rain = 0
KBY1 130842Z 26002KT M00/M07 A30 RMK A01 T10041074  RH  059%=      5-min Rain = 0
KBY1 130843Z 26002KT M00/M07 A30 RMK A01 T10041074  RH  059%=      5-min Rain = 0
KBY1 130844Z 26002KT M00/M07 A30 RMK A01 T10041074  RH  059%=      5-min Rain = 0
KBY1 130845Z 26002KT M00/M08 A30 RMK A01 T10041076  RH  058%=      5-min Rain = 0
KBY1 130846Z 26001KT M01/M08 A30 RMK A01 T10081081  RH  058%=      5-min Rain = 0
KBY1 130847Z 26001KT M02/M09 A30 RMK A01 T10151087  RH  058%=      5-min Rain = 0
KBY1 130848Z 26000KT M02/M09 A30 RMK A01 T10231089  RH  060%=      5-min Rain = 0
KBY1 130849Z 00000KT M03/M09 A30 RMK A01 T10271089  RH  063%=      5-min Rain = 0
KBY1 130850Z 00000KT M03/M09 A30 RMK A01 T10311089  RH  064%=      5-min Rain = 0
KBY1 130851Z 00000KT M03/M09 A30 RMK A01 T10331087  RH  066%=      5-min Rain = 0
KBY1 130852Z 00000KT M03/M08 A30 RMK A01 T10331084  RH  068%=      5-min Rain = 0
KBY1 130853Z 00000KT M03/M08 A30 RMK A01 T10341083  RH  069%=      5-min Rain = 0
KBY1 130854Z 00000KT M03/M08 A30 RMK A01 T10331082  RH  069%=      5-min Rain = 0
KBY1 130855Z 00000KT M03/M08 A30 RMK A01 T10301080  RH  069%=      5-min Rain = 0
KBY1 130856Z 00000KT M03/M08 A30 RMK A01 T10291079  RH  068%=      5-min Rain = 0
KBY1 130857Z 00000KT M03/M08 A30 RMK A01 T10261078  RH  068%=      5-min Rain = 0
KBY1 130858Z 00000KT M02/M08 A30 RMK A01 T10241076  RH  067%=      5-min Rain = 0
KBY1 130859Z 00000KT M02/M08 A30 RMK A01 T10231077  RH  066%=      5-min Rain = 0
KBY1 130900Z 28000KT M02/M08 A30 RMK A01 T10241080  RH  065%=      5-min Rain = 0
KBY1 130901Z 28000KT M03/M08 A30 RMK A01 T10261082  RH  066%=      5-min Rain = 0
KBY1 130902Z 00000KT M03/M08 A30 RMK A01 T10271081  RH  067%=      5-min Rain = 0
KBY1 130903Z 00000KT M03/M08 A2999 RMK A01 T10291082  RH  067%=      5-min Rain = 0
KBY1 130904Z 00000KT M03/M08 A2999 RMK A01 T10311082  RH  068%=      5-min Rain = 0
KBY1 130905Z 00000KT M03/M08 A2999 RMK A01 T10321081  RH  069%=      5-min Rain = 0
KBY1 130906Z 00000KT M03/M08 A2999 RMK A01 T10311080  RH  069%=      5-min Rain = 0
KBY1 130907Z 00000KT M03/M08 A2999 RMK A01 T10311080  RH  069%=      5-min Rain = 0
KBY1 130908Z 00000KT M03/M08 A2999 RMK A01 T10311080  RH  069%=      5-min Rain = 0
KBY1 130909Z 00000KT M03/M08 A2999 RMK A01 T10311081  RH  068%=      5-min Rain = 0
KBY1 130910Z 00000KT M03/M08 A2999 RMK A01 T10331083  RH  068%=      5-min Rain = 0
KBY1 130911Z 00000KT M03/M08 A2999 RMK A01 T10341083  RH  069%=      5-min Rain = 0
KBY1 130912Z 00000KT M03/M08 A2999 RMK A01 T10341082  RH  069%=      5-min Rain = 0
KBY1 130913Z 00000KT M04/M08 A2999 RMK A01 T10351082  RH  070%=      5-min Rain = 0
KBY1 130914Z 00000KT M03/M08 A2999 RMK A01 T10341081  RH  070%=      5-min Rain = 0
KBY1 130915Z 00000KT M03/M08 A2999 RMK A01 T10341080  RH  070%=      5-min Rain = 0
KBY1 130916Z 00000KT M03/M08 A2999 RMK A01 T10321079  RH  070%=      5-min Rain = 0
KBY1 130917Z 00000KT M03/M08 A2999 RMK A01 T10301078  RH  069%=      5-min Rain = 0
KBY1 130918Z 00000KT M03/M08 A2998 RMK A01 T10291078  RH  069%=      5-min Rain = 0
KBY1 130919Z 00000KT M03/M08 A2998 RMK A01 T10281078  RH  068%=      5-min Rain = 0
KBY1 130920Z 00000KT M03/M08 A2998 RMK A01 T10271078  RH  068%=      5-min Rain = 0
KBY1 130921Z 00000KT M03/M08 A2998 RMK A01 T10261078  RH  067%=      5-min Rain = 0
KBY1 130922Z 00000KT M03/M08 A2998 RMK A01 T10261079  RH  067%=      5-min Rain = 0
KBY1 130923Z 00000KT M03/M08 A2998 RMK A01 T10271080  RH  067%=      5-min Rain = 0
KBY1 130924Z 00000KT M03/M08 A2998 RMK A01 T10271079  RH  067%=      5-min Rain = 0
KBY1 130925Z 00000KT M03/M08 A2998 RMK A01 T10271080  RH  067%=      5-min Rain = 0
KBY1 130926Z 00000KT M03/M08 A2998 RMK A01 T10301083  RH  067%=      5-min Rain = 0
KBY1 130927Z 00000KT M03/M08 A2998 RMK A01 T10331084  RH  068%=      5-min Rain = 0
KBY1 130928Z 00000KT M03/M08 A2998 RMK A01 T10331082  RH  069%=      5-min Rain = 0
KBY1 130929Z 00000KT M03/M08 A2998 RMK A01 T10331081  RH  069%=      5-min Rain = 0
KBY1 130930Z 00000KT M03/M08 A2998 RMK A01 T10331081  RH  069%=      5-min Rain = 0
KBY1 130931Z 00000KT M03/M08 A2998 RMK A01 T10341082  RH  069%=      5-min Rain = 0
KBY1 130932Z 00000KT M04/M09 A2997 RMK A01 T10371086  RH  069%=      5-min Rain = 0
KBY1 130933Z 00000KT M04/M09 A2997 RMK A01 T10421091  RH  069%=      5-min Rain = 0
KBY1 130934Z 00000KT M05/M09 A2997 RMK A01 T10461094  RH  069%=      5-min Rain = 0
KBY1 130935Z 00000KT M05/M09 A2997 RMK A01 T10491093  RH  071%=      5-min Rain = 0
KBY1 130936Z 28000KT M05/M09 A2997 RMK A01 T10491089  RH  074%=      5-min Rain = 0
KBY1 130937Z 29000KT M05/M09 A2997 RMK A01 T10481085  RH  075%=      5-min Rain = 0
KBY1 130938Z 00000KT M05/M08 A2997 RMK A01 T10461082  RH  076%=      5-min Rain = 0
KBY1 130939Z 00000KT M05/M08 A2997 RMK A01 T10451082  RH  075%=      5-min Rain = 0
KBY1 130940Z 00000KT M04/M08 A2997 RMK A01 T10431081  RH  075%=      5-min Rain = 0
KBY1 130941Z 00000KT M04/M08 A2997 RMK A01 T10401078  RH  075%=      5-min Rain = 0
KBY1 130942Z 00000KT M04/M08 A2997 RMK A01 T10361076  RH  074%=      5-min Rain = 0
KBY1 130943Z 00000KT M03/M08 A2997 RMK A01 T10331076  RH  072%=      5-min Rain = 0
KBY1 130944Z 00000KT M03/M08 A2997 RMK A01 T10311077  RH  071%=      5-min Rain = 0
KBY1 130945Z 00000KT M03/M08 A2997 RMK A01 T10311079  RH  070%=      5-min Rain = 0
KBY1 130946Z 00000KT M03/M08 A2997 RMK A01 T10311079  RH  069%=      5-min Rain = 0
KBY1 130947Z 00000KT M03/M08 A2996 RMK A01 T10311079  RH  069%=      5-min Rain = 0
KBY1 130948Z 00000KT M03/M08 A2996 RMK A01 T10311080  RH  069%=      5-min Rain = 0
KBY1 130949Z 00000KT M03/M08 A2996 RMK A01 T10321080  RH  069%=      5-min Rain = 0
KBY1 130950Z 00000KT M03/M08 A2996 RMK A01 T10291077  RH  070%=      5-min Rain = 0
KBY1 130951Z 00000KT M03/M08 A2996 RMK A01 T10281079  RH  068%=      5-min Rain = 0
KBY1 130952Z 00000KT M03/M08 A2996 RMK A01 T10321084  RH  067%=      5-min Rain = 0
KBY1 130953Z 00000KT M03/M08 A2996 RMK A01 T10321081  RH  069%=      5-min Rain = 0
KBY1 130954Z 00000KT M03/M08 A2996 RMK A01 T10301077  RH  070%=      5-min Rain = 0
KBY1 130955Z 00000KT M03/M08 A2996 RMK A01 T10281077  RH  069%=      5-min Rain = 0
KBY1 130956Z 26000KT M03/M08 A2996 RMK A01 T10251076  RH  068%=      5-min Rain = 0
KBY1 130957Z 00000KT M03/M08 A2996 RMK A01 T10251079  RH  067%=      5-min Rain = 0
KBY1 130958Z 00000KT M03/M08 A2996 RMK A01 T10291084  RH  066%=      5-min Rain = 0
KBY1 130959Z 00000KT M03/M08 A2996 RMK A01 T10321082  RH  068%=      5-min Rain = 0
KBY1 131000Z 00000KT M03/M08 A2996 RMK A01 T10301079  RH  069%=      5-min Rain = 0
KBY1 131001Z 00000KT M03/M08 A2996 RMK A01 T10321083  RH  068%=      5-min Rain = 0
KBY1 131002Z 00000KT M03/M08 A2996 RMK A01 T10341082  RH  069%=      5-min Rain = 0
KBY1 131003Z 00000KT M03/M08 A2995 RMK A01 T10301076  RH  070%=      5-min Rain = 0
KBY1 131004Z 24000KT M03/M09 A2995 RMK A01 T10311085  RH  067%=      5-min Rain = 0
KBY1 131005Z 00000KT M04/M09 A2995 RMK A01 T10401094  RH  066%=      5-min Rain = 0
KBY1 131006Z 00000KT M05/M09 A2995 RMK A01 T10451093  RH  070%=      5-min Rain = 0
KBY1 131007Z 00000KT M05/M09 A2995 RMK A01 T10481092  RH  071%=      5-min Rain = 0
KBY1 131008Z 00000KT M05/M09 A2996 RMK A01 T10521094  RH  072%=      5-min Rain = 0
KBY1 131009Z 00000KT M05/M10 A2996 RMK A01 T10541095  RH  073%=      5-min Rain = 0
KBY1 131010Z 00000KT M06/M10 A2996 RMK A01 T10561095  RH  074%=      5-min Rain = 0
KBY1 131011Z 00000KT M06/M09 A2996 RMK A01 T10581094  RH  075%=      5-min Rain = 0
KBY1 131012Z 00000KT M06/M09 A2996 RMK A01 T10591094  RH  076%=      5-min Rain = 0
KBY1 131013Z 00000KT M06/M10 A2996 RMK A01 T10611096  RH  077%=      5-min Rain = 0
KBY1 131014Z 00000KT M06/M10 A2996 RMK A01 T10641099  RH  077%=      5-min Rain = 0
KBY1 131015Z 00000KT M07/M10 A2996 RMK A01 T10671101  RH  077%=      5-min Rain = 0
KBY1 131016Z 00000KT M07/M10 A2996 RMK A01 T10691103  RH  077%=      5-min Rain = 0
KBY1 131017Z 00000KT M07/M10 A2996 RMK A01 T10721104  RH  078%=      5-min Rain = 0
KBY1 131018Z 00000KT M07/M10 A2995 RMK A01 T10731103  RH  079%=      5-min Rain = 0
KBY1 131019Z 00000KT M07/M10 A2995 RMK A01 T10721100  RH  081%=      5-min Rain = 0
KBY1 131020Z 00000KT M07/M09 A2995 RMK A01 T10691093  RH  083%=      5-min Rain = 0
KBY1 131021Z 00000KT M07/M09 A2995 RMK A01 T10671088  RH  085%=      5-min Rain = 0
KBY1 131022Z 00000KT M07/M09 A2995 RMK A01 T10651086  RH  085%=      5-min Rain = 0
KBY1 131023Z 00000KT M07/M09 A2995 RMK A01 T10651088  RH  084%=      5-min Rain = 0
KBY1 131024Z 00000KT M07/M09 A2995 RMK A01 T10661090  RH  083%=      5-min Rain = 0
KBY1 131025Z 00000KT M07/M09 A2995 RMK A01 T10661092  RH  082%=      5-min Rain = 0
KBY1 131026Z 00000KT M07/M09 A2995 RMK A01 T10661092  RH  082%=      5-min Rain = 0
KBY1 131027Z 00000KT M07/M09 A2995 RMK A01 T10671093  RH  082%=      5-min Rain = 0
KBY1 131028Z 00000KT M07/M09 A2995 RMK A01 T10671094  RH  082%=      5-min Rain = 0
KBY1 131029Z 00000KT M07/M10 A2995 RMK A01 T10691095  RH  082%=      5-min Rain = 0
KBY1 131030Z 00000KT M07/M10 A2995 RMK A01 T10701096  RH  081%=      5-min Rain = 0
KBY1 131031Z 00000KT M07/M10 A2995 RMK A01 T10701096  RH  082%=      5-min Rain = 0
KBY1 131032Z 00000KT M07/M09 A2994 RMK A01 T10701094  RH  083%=      5-min Rain = 0
KBY1 131033Z 00000KT M07/M09 A2994 RMK A01 T10701094  RH  083%=      5-min Rain = 0
KBY1 131034Z 00000KT M07/M09 A2994 RMK A01 T10701093  RH  083%=      5-min Rain = 0
KBY1 131035Z 00000KT M07/M09 A2995 RMK A01 T10691093  RH  083%=      5-min Rain = 0
KBY1 131036Z 00000KT M07/M09 A2994 RMK A01 T10691093  RH  083%=      5-min Rain = 0
KBY1 131037Z 00000KT M07/M09 A2994 RMK A01 T10701093  RH  084%=      5-min Rain = 0
KBY1 131038Z 00000KT M07/M09 A2995 RMK A01 T10691092  RH  084%=      5-min Rain = 0
KBY1 131039Z 00000KT M07/M09 A2995 RMK A01 T10681090  RH  084%=      5-min Rain = 0
KBY1 131040Z 00000KT M07/M09 A2994 RMK A01 T10671088  RH  085%=      5-min Rain = 0
KBY1 131041Z 00000KT M07/M09 A2994 RMK A01 T10661088  RH  084%=      5-min Rain = 0
KBY1 131042Z 00000KT M07/M09 A2994 RMK A01 T10651088  RH  084%=      5-min Rain = 0
KBY1 131043Z 00000KT M07/M09 A2994 RMK A01 T10651088  RH  084%=      5-min Rain = 0
KBY1 131044Z 00000KT M06/M09 A2994 RMK A01 T10631087  RH  084%=      5-min Rain = 0
KBY1 131045Z 00000KT M06/M08 A2994 RMK A01 T10611083  RH  084%=      5-min Rain = 0
KBY1 131046Z 00000KT M06/M08 A2994 RMK A01 T10591083  RH  083%=      5-min Rain = 0
KBY1 131047Z 00000KT M06/M09 A2994 RMK A01 T10591086  RH  082%=      5-min Rain = 0
KBY1 131048Z 00000KT M06/M09 A2994 RMK A01 T10601087  RH  081%=      5-min Rain = 0
KBY1 131049Z 00000KT M06/M09 A2994 RMK A01 T10601088  RH  081%=      5-min Rain = 0
KBY1 131050Z 00000KT M06/M09 A2994 RMK A01 T10611088  RH  081%=      5-min Rain = 0
KBY1 131051Z 00000KT M06/M09 A2994 RMK A01 T10611088  RH  081%=      5-min Rain = 0
KBY1 131052Z 26000KT M06/M09 A2994 RMK A01 T10631091  RH  080%=      5-min Rain = 0
KBY1 131053Z 26000KT M07/M10 A2994 RMK A01 T10681100  RH  078%=      5-min Rain = 0
KBY1 131054Z 00000KT M07/M11 A2994 RMK A01 T10741107  RH  077%=      5-min Rain = 0
KBY1 131055Z 00000KT M08/M11 A2994 RMK A01 T10781109  RH  078%=      5-min Rain = 0
KBY1 131056Z 00000KT M08/M11 A2994 RMK A01 T10801109  RH  080%=      5-min Rain = 0
KBY1 131057Z 00000KT M08/M11 A2994 RMK A01 T10821109  RH  081%=      5-min Rain = 0
KBY1 131058Z 00000KT M08/M11 A2994 RMK A01 T10831108  RH  082%=      5-min Rain = 0
KBY1 131059Z 00000KT M08/M11 A2994 RMK A01 T10831106  RH  084%=      5-min Rain = 0
KBY1 131100Z 20000KT M08/M10 A2993 RMK A01 T10831103  RH  086%=      5-min Rain = 0
KBY1 131101Z 02000KT M08/M10 A2993 RMK A01 T10811099  RH  087%=      5-min Rain = 0
KBY1 131102Z 00001KT M08/M10 A2993 RMK A01 T10791096  RH  087%=      5-min Rain = 0
KBY1 131103Z 35001KT M08/M09 A2993 RMK A01 T10771094  RH  088%=      5-min Rain = 0
KBY1 131104Z 35001KT M08/M09 A2993 RMK A01 T10761093  RH  088%=      5-min Rain = 0
KBY1 131105Z 33002KT M07/M09 A2993 RMK A01 T10741090  RH  088%=      5-min Rain = 0
KBY1 131106Z 34002KT M07/M09 A2993 RMK A01 T10701085  RH  089%=      5-min Rain = 0
KBY1 131107Z 34001KT M07/M08 A2993 RMK A01 T10671083  RH  089%=      5-min Rain = 0
KBY1 131108Z 34000KT M07/M08 A2993 RMK A01 T10661083  RH  088%=      5-min Rain = 0
KBY1 131109Z 00000KT M07/M08 A2993 RMK A01 T10661084  RH  087%=      5-min Rain = 0
KBY1 131110Z 00000KT M07/M09 A2993 RMK A01 T10681090  RH  084%=      5-min Rain = 0
KBY1 131111Z 00000KT M07/M10 A2993 RMK A01 T10721097  RH  082%=      5-min Rain = 0
KBY1 131112Z 00000KT M07/M10 A2993 RMK A01 T10731098  RH  082%=      5-min Rain = 0
KBY1 131113Z 00000KT M07/M10 A2993 RMK A01 T10731096  RH  084%=      5-min Rain = 0
KBY1 131114Z 00000KT M07/M09 A2993 RMK A01 T10721093  RH  085%=      5-min Rain = 0
KBY1 131115Z 00000KT M07/M09 A2993 RMK A01 T10711091  RH  085%=      5-min Rain = 0
KBY1 131116Z 00000KT M07/M09 A2993 RMK A01 T10691089  RH  086%=      5-min Rain = 0
KBY1 131117Z 29000KT M07/M09 A2993 RMK A01 T10661085  RH  086%=      5-min Rain = 0
KBY1 131118Z 31001KT M06/M08 A2993 RMK A01 T10631083  RH  086%=      5-min Rain = 0
KBY1 131119Z 31002KT M06/M08 A2993 RMK A01 T10601081  RH  086%=      5-min Rain = 0
KBY1 131120Z 31002KT M06/M08 A2993 RMK A01 T10591082  RH  084%=      5-min Rain = 0
KBY1 131121Z 31002KT M06/M08 A2993 RMK A01 T10591082  RH  084%=      5-min Rain = 0
KBY1 131122Z 31001KT M06/M08 A2993 RMK A01 T10571081  RH  083%=      5-min Rain = 0
KBY1 131123Z 30001KT M06/M08 A2993 RMK A01 T10571082  RH  082%=      5-min Rain = 0
KBY1 131124Z 18001KT M06/M09 A2993 RMK A01 T10611092  RH  079%=      5-min Rain = 0
KBY1 131125Z 23000KT M07/M10 A2993 RMK A01 T10691104  RH  076%=      5-min Rain = 0
KBY1 131126Z 35000KT M08/M11 A2993 RMK A01 T10751109  RH  077%=      5-min Rain = 0
KBY1 131127Z 35000KT M08/M11 A2993 RMK A01 T10781110  RH  078%=      5-min Rain = 0
KBY1 131128Z 13001KT M08/M11 A2993 RMK A01 T10801109  RH  079%=      5-min Rain = 0
KBY1 131129Z 19002KT M08/M11 A2993 RMK A01 T10821110  RH  080%=      5-min Rain = 0
KBY1 131130Z 19002KT M08/M11 A2993 RMK A01 T10841110  RH  081%=      5-min Rain = 0
KBY1 131131Z 16001KT M09/M11 A2993 RMK A01 T10861111  RH  082%=      5-min Rain = 0
KBY1 131132Z 13000KT M09/M11 A2993 RMK A01 T10871110  RH  084%=      5-min Rain = 0
KBY1 131133Z 19000KT M09/M11 A2993 RMK A01 T10871108  RH  085%=      5-min Rain = 0
KBY1 131134Z 23000KT M09/M11 A2993 RMK A01 T10881108  RH  085%=      5-min Rain = 0
KBY1 131135Z 26001KT M09/M11 A2993 RMK A01 T10881107  RH  086%=      5-min Rain = 0
KBY1 131136Z 26001KT M09/M11 A2993 RMK A01 T10881106  RH  087%=      5-min Rain = 0
KBY1 131137Z 25000KT M09/M11 A2993 RMK A01 T10881105  RH  087%=      5-min Rain = 0
KBY1 131138Z 00000KT M09/M10 A2993 RMK A01 T10871104  RH  088%=      5-min Rain = 0
KBY1 131139Z 03000KT M09/M10 A2993 RMK A01 T10861102  RH  088%=      5-min Rain = 0
KBY1 131140Z 04001KT M09/M10 A2993 RMK A01 T10851100  RH  089%=      5-min Rain = 0
KBY1 131141Z 00000KT M08/M10 A2993 RMK A01 T10841100  RH  089%=      5-min Rain = 0
KBY1 131142Z 00000KT M08/M10 A2993 RMK A01 T10841100  RH  088%=      5-min Rain = 0
KBY1 131143Z 00000KT M08/M10 A2994 RMK A01 T10841101  RH  088%=      5-min Rain = 0
KBY1 131144Z 00000KT M09/M10 A2993 RMK A01 T10851101  RH  088%=      5-min Rain = 0
KBY1 131145Z 00000KT M08/M10 A2993 RMK A01 T10841101  RH  088%=      5-min Rain = 0
KBY1 131146Z 00000KT M09/M10 A2993 RMK A01 T10851101  RH  088%=      5-min Rain = 0
KBY1 131147Z 35001KT M09/M10 A2993 RMK A01 T10851101  RH  088%=      5-min Rain = 0
KBY1 131148Z 35003KT M08/M10 A2993 RMK A01 T10821098  RH  088%=      5-min Rain = 0
KBY1 131149Z 34004KT M08/M09 A2993 RMK A01 T10781093  RH  089%=      5-min Rain = 0
KBY1 131150Z 34005KT M08/M09 A2993 RMK A01 T10751090  RH  089%=      5-min Rain = 0
KBY1 131151Z 34006KT M07/M09 A2993 RMK A01 T10701085  RH  089%=      5-min Rain = 0
KBY1 131152Z 34005KT M06/M08 A2993 RMK A01 T10621076  RH  090%=      5-min Rain = 0
KBY1 131153Z 34005KT M06/M08 A2993 RMK A01 T10581075  RH  088%=      5-min Rain = 0
KBY1 131154Z 34005KT M06/M08 A2993 RMK A01 T10551076  RH  085%=      5-min Rain = 0
KBY1 131155Z 34004KT M05/M08 A2993 RMK A01 T10531077  RH  083%=      5-min Rain = 0
KBY1 131156Z 33004KT M05/M08 A2993 RMK A01 T10511076  RH  083%=      5-min Rain = 0
KBY1 131157Z 34003KT M05/M08 A2993 RMK A01 T10491075  RH  082%=      5-min Rain = 0
KBY1 131158Z 34002KT M05/M08 A2993 RMK A01 T10511082  RH  079%=      5-min Rain = 0
KBY1 131159Z 33002KT M06/M10 A2993 RMK A01 T10591096  RH  075%=      5-min Rain = 0
KBY1 131200Z 19000KT M07/M10 A2993 RMK A01 T10651102  RH  075%=      5-min Rain = 0
KBY1 131201Z 19001KT M07/M11 A2993 RMK A01 T10711106  RH  076%=      5-min Rain = 0
KBY1 131202Z 21002KT M08/M11 A2993 RMK A01 T10761107  RH  078%=      5-min Rain = 0
KBY1 131203Z 21002KT M08/M11 A2993 RMK A01 T10781107  RH  080%=      5-min Rain = 0
KBY1 131204Z 22001KT M08/M11 A2992 RMK A01 T10801105  RH  082%=      5-min Rain = 0
KBY1 131205Z 21002KT M08/M10 A2992 RMK A01 T10811104  RH  084%=      5-min Rain = 0
KBY1 131206Z 22003KT M08/M10 A2992 RMK A01 T10821103  RH  085%=      5-min Rain = 0
KBY1 131207Z 22003KT M08/M10 A2992 RMK A01 T10821102  RH  086%=      5-min Rain = 0
KBY1 131208Z 22002KT M08/M10 A2992 RMK A01 T10831102  RH  086%=      5-min Rain = 0
KBY1 131209Z 23001KT M08/M10 A2992 RMK A01 T10831101  RH  087%=      5-min Rain = 0
KBY1 131210Z 23001KT M08/M10 A2992 RMK A01 T10831100  RH  088%=      5-min Rain = 0
KBY1 131211Z 23001KT M08/M10 A2992 RMK A01 T10821098  RH  088%=      5-min Rain = 0
KBY1 131212Z 24000KT M08/M10 A2992 RMK A01 T10821098  RH  088%=      5-min Rain = 0
KBY1 131213Z 00000KT M08/M10 A2992 RMK A01 T10811097  RH  088%=      5-min Rain = 0
KBY1 131214Z 21000KT M08/M10 A2992 RMK A01 T10811097  RH  088%=      5-min Rain = 0
KBY1 131215Z 23001KT M08/M10 A2992 RMK A01 T10801097  RH  088%=      5-min Rain = 0
KBY1 131216Z 23001KT M08/M10 A2992 RMK A01 T10811097  RH  088%=      5-min Rain = 0
KBY1 131217Z 23002KT M08/M10 A2992 RMK A01 T10801097  RH  088%=      5-min Rain = 0
KBY1 131218Z 23002KT M08/M10 A2992 RMK A01 T10791097  RH  088%=      5-min Rain = 0
KBY1 131219Z 22002KT M08/M10 A2992 RMK A01 T10801097  RH  087%=      5-min Rain = 0
KBY1 131220Z 22003KT M08/M10 A2992 RMK A01 T10801098  RH  087%=      5-min Rain = 0
KBY1 131221Z 23003KT M08/M10 A2992 RMK A01 T10801098  RH  087%=      5-min Rain = 0
KBY1 131222Z 23002KT M08/M10 A2992 RMK A01 T10801098  RH  087%=      5-min Rain = 0
KBY1 131223Z 24003KT M08/M10 A2992 RMK A01 T10801098  RH  087%=      5-min Rain = 0
KBY1 131224Z 24003KT M08/M10 A2992 RMK A01 T10801098  RH  087%=      5-min Rain = 0
KBY1 131225Z 25002KT M08/M10 A2992 RMK A01 T10801097  RH  087%=      5-min Rain = 0
KBY1 131226Z 26001KT M08/M10 A2992 RMK A01 T10781095  RH  088%=      5-min Rain = 0
KBY1 131227Z 27001KT M08/M09 A2992 RMK A01 T10761092  RH  088%=      5-min Rain = 0
KBY1 131228Z 28000KT M07/M09 A2992 RMK A01 T10731089  RH  089%=      5-min Rain = 0
KBY1 131229Z 00000KT M07/M09 A2992 RMK A01 T10701085  RH  089%=      5-min Rain = 0
KBY1 131230Z 00000KT M07/M08 A2992 RMK A01 T10681084  RH  088%=      5-min Rain = 0
KBY1 131231Z 00000KT M07/M09 A2992 RMK A01 T10671085  RH  087%=      5-min Rain = 0
KBY1 131232Z 00000KT M07/M09 A2992 RMK A01 T10681089  RH  085%=      5-min Rain = 0
KBY1 131233Z 00000KT M07/M09 A2992 RMK A01 T10691091  RH  085%=      5-min Rain = 0
KBY1 131234Z 00000KT M07/M09 A2992 RMK A01 T10711093  RH  084%=      5-min Rain = 0
KBY1 131235Z 00000KT M07/M09 A2992 RMK A01 T10711094  RH  084%=      5-min Rain = 0
KBY1 131236Z 00000KT M07/M10 A2992 RMK A01 T10721095  RH  084%=      5-min Rain = 0
KBY1 131237Z 00000KT M07/M09 A2992 RMK A01 T10721093  RH  084%=      5-min Rain = 0
KBY1 131238Z 00000KT M07/M09 A2992 RMK A01 T10721093  RH  085%=      5-min Rain = 0
KBY1 131239Z 00000KT M07/M09 A2992 RMK A01 T10721092  RH  086%=      5-min Rain = 0
KBY1 131240Z 00000KT M07/M09 A2992 RMK A01 T10711090  RH  086%=      5-min Rain = 0
KBY1 131241Z 00000KT M07/M09 A2992 RMK A01 T10701089  RH  086%=      5-min Rain = 0
KBY1 131242Z 00000KT M07/M09 A2992 RMK A01 T10701090  RH  086%=      5-min Rain = 0
KBY1 131243Z 00000KT M07/M09 A2992 RMK A01 T10701091  RH  086%=      5-min Rain = 0
KBY1 131244Z 00000KT M07/M09 A2992 RMK A01 T10701089  RH  086%=      5-min Rain = 0
KBY1 131245Z 00000KT M07/M09 A2992 RMK A01 T10691089  RH  086%=      5-min Rain = 0
KBY1 131246Z 00000KT M07/M09 A2992 RMK A01 T10691089  RH  085%=      5-min Rain = 0
KBY1 131247Z 00000KT M07/M09 A2992 RMK A01 T10691090  RH  085%=      5-min Rain = 0
KBY1 131248Z 00000KT M07/M09 A2992 RMK A01 T10691090  RH  085%=      5-min Rain = 0
KBY1 131249Z 00000KT M07/M09 A2992 RMK A01 T10691090  RH  085%=      5-min Rain = 0
KBY1 131250Z 24001KT M07/M09 A2992 RMK A01 T10671088  RH  085%=      5-min Rain = 0
KBY1 131251Z 23000KT M07/M09 A2993 RMK A01 T10661087  RH  085%=      5-min Rain = 0
KBY1 131252Z 23000KT M07/M09 A2993 RMK A01 T10651087  RH  085%=      5-min Rain = 0
KBY1 131253Z 00000KT M06/M09 A2993 RMK A01 T10641086  RH  084%=      5-min Rain = 0
KBY1 131254Z 00000KT M06/M09 A2993 RMK A01 T10621086  RH  083%=      5-min Rain = 0
KBY1 131255Z 00000KT M06/M09 A2993 RMK A01 T10621087  RH  083%=      5-min Rain = 0
KBY1 131256Z 00000KT M06/M09 A2993 RMK A01 T10611086  RH  082%=      5-min Rain = 0
KBY1 131257Z 00000KT M06/M09 A2993 RMK A01 T10601086  RH  082%=      5-min Rain = 0
KBY1 131258Z 00000KT M06/M09 A2992 RMK A01 T10591086  RH  081%=      5-min Rain = 0
KBY1 131259Z 00000KT M06/M09 A2992 RMK A01 T10591088  RH  080%=      5-min Rain = 0
KBY1 131300Z 00000KT M06/M09 A2993 RMK A01 T10611091  RH  079%=      5-min Rain = 0
KBY1 131301Z 00000KT M06/M09 A2993 RMK A01 T10621093  RH  079%=      5-min Rain = 0
KBY1 131302Z 00000KT M06/M09 A2993 RMK A01 T10641094  RH  079%=      5-min Rain = 0
KBY1 131303Z 00000KT M07/M10 A2993 RMK A01 T10671097  RH  079%=      5-min Rain = 0
KBY1 131304Z 00000KT M07/M10 A2993 RMK A01 T10691097  RH  080%=      5-min Rain = 0
KBY1 131305Z 00000KT M07/M10 A2993 RMK A01 T10701097  RH  081%=      5-min Rain = 0
KBY1 131306Z 10001KT M07/M10 A2993 RMK A01 T10731100  RH  081%=      5-min Rain = 0
KBY1 131307Z 10002KT M08/M11 A2993 RMK A01 T10781105  RH  080%=      5-min Rain = 0
KBY1 131308Z 10001KT M08/M11 A2992 RMK A01 T10801107  RH  082%=      5-min Rain = 0
KBY1 131309Z 10001KT M08/M10 A2992 RMK A01 T10811104  RH  083%=      5-min Rain = 0
KBY1 131310Z 10001KT M08/M10 A2992 RMK A01 T10811103  RH  084%=      5-min Rain = 0
KBY1 131311Z 10000KT M08/M10 A2992 RMK A01 T10821102  RH  085%=      5-min Rain = 0
KBY1 131312Z 00000KT M08/M10 A2992 RMK A01 T10811100  RH  087%=      5-min Rain = 0
KBY1 131313Z 03000KT M08/M10 A2992 RMK A01 T10811098  RH  087%=      5-min Rain = 0
KBY1 131314Z 03001KT M08/M10 A2991 RMK A01 T10791096  RH  088%=      5-min Rain = 0
KBY1 131315Z 03001KT M08/M09 A2991 RMK A01 T10771094  RH  088%=      5-min Rain = 0
KBY1 131316Z 03001KT M08/M09 A2991 RMK A01 T10761092  RH  088%=      5-min Rain = 0
KBY1 131317Z 03001KT M07/M09 A2992 RMK A01 T10741091  RH  088%=      5-min Rain = 0
KBY1 131318Z 05001KT M07/M09 A2992 RMK A01 T10731090  RH  088%=      5-min Rain = 0
KBY1 131319Z 05002KT M07/M09 A2992 RMK A01 T10721090  RH  087%=      5-min Rain = 0
KBY1 131320Z 04002KT M07/M09 A2992 RMK A01 T10711090  RH  087%=      5-min Rain = 0
KBY1 131321Z 03002KT M07/M09 A2992 RMK A01 T10701090  RH  086%=      5-min Rain = 0
KBY1 131322Z 03002KT M07/M09 A2992 RMK A01 T10701091  RH  085%=      5-min Rain = 0
KBY1 131323Z 03002KT M07/M09 A2992 RMK A01 T10701091  RH  085%=      5-min Rain = 0
KBY1 131324Z 03001KT M07/M09 A2992 RMK A01 T10701091  RH  085%=      5-min Rain = 0
KBY1 131325Z 03001KT M07/M09 A2992 RMK A01 T10681089  RH  085%=      5-min Rain = 0
KBY1 131326Z 03001KT M07/M09 A2992 RMK A01 T10671088  RH  085%=      5-min Rain = 0
KBY1 131327Z 03001KT M07/M09 A2992 RMK A01 T10661088  RH  085%=      5-min Rain = 0
KBY1 131328Z 03001KT M07/M09 A2992 RMK A01 T10651087  RH  084%=      5-min Rain = 0
KBY1 131329Z 03000KT M06/M09 A2992 RMK A01 T10641087  RH  084%=      5-min Rain = 0
KBY1 131330Z 03000KT M06/M09 A2992 RMK A01 T10641088  RH  083%=      5-min Rain = 0
KBY1 131331Z 06001KT M06/M09 A2992 RMK A01 T10641088  RH  083%=      5-min Rain = 0
KBY1 131332Z 05001KT M06/M09 A2992 RMK A01 T10641089  RH  083%=      5-min Rain = 0
KBY1 131333Z 04001KT M06/M09 A2992 RMK A01 T10641089  RH  082%=      5-min Rain = 0
KBY1 131334Z 04000KT M07/M09 A2992 RMK A01 T10651090  RH  082%=      5-min Rain = 0
KBY1 131335Z 00000KT M07/M09 A2992 RMK A01 T10661092  RH  082%=      5-min Rain = 0
KBY1 131336Z 27000KT M07/M09 A2992 RMK A01 T10671092  RH  083%=      5-min Rain = 0
KBY1 131337Z 27000KT M07/M09 A2992 RMK A01 T10681092  RH  083%=      5-min Rain = 0
KBY1 131338Z 00000KT M07/M09 A2992 RMK A01 T10691092  RH  083%=      5-min Rain = 0
KBY1 131339Z 00000KT M07/M09 A2992 RMK A01 T10691091  RH  084%=      5-min Rain = 0
KBY1 131340Z 00000KT M07/M09 A2992 RMK A01 T10691091  RH  084%=      5-min Rain = 0
KBY1 131341Z 00000KT M07/M09 A2992 RMK A01 T10681090  RH  084%=      5-min Rain = 0
KBY1 131342Z 23000KT M07/M09 A2992 RMK A01 T10691091  RH  085%=      5-min Rain = 0
KBY1 131343Z 23002KT M07/M09 A2992 RMK A01 T10691090  RH  085%=      5-min Rain = 0
KBY1 131344Z 23001KT M07/M09 A2992 RMK A01 T10681088  RH  086%=      5-min Rain = 0
KBY1 131345Z 23002KT M07/M09 A2993 RMK A01 T10671087  RH  086%=      5-min Rain = 0
KBY1 131346Z 23002KT M07/M09 A2993 RMK A01 T10661086  RH  086%=      5-min Rain = 0
KBY1 131347Z 23001KT M07/M09 A2993 RMK A01 T10651085  RH  086%=      5-min Rain = 0
KBY1 131348Z 23002KT M06/M08 A2993 RMK A01 T10641084  RH  086%=      5-min Rain = 0
KBY1 131349Z 22002KT M06/M09 A2993 RMK A01 T10641085  RH  085%=      5-min Rain = 0
KBY1 131350Z 23002KT M06/M09 A2993 RMK A01 T10631085  RH  085%=      5-min Rain = 0
KBY1 131351Z 23002KT M06/M09 A2993 RMK A01 T10621085  RH  084%=      5-min Rain = 0
KBY1 131352Z 23002KT M06/M09 A2993 RMK A01 T10621085  RH  084%=      5-min Rain = 0
KBY1 131353Z 24002KT M06/M08 A2993 RMK A01 T10611084  RH  083%=      5-min Rain = 0
KBY1 131354Z 24001KT M06/M08 A2993 RMK A01 T10601084  RH  083%=      5-min Rain = 0
KBY1 131355Z 24001KT M06/M09 A2993 RMK A01 T10601085  RH  083%=      5-min Rain = 0
KBY1 131356Z 24000KT M06/M08 A2993 RMK A01 T10591084  RH  082%=      5-min Rain = 0
KBY1 131357Z 24000KT M06/M09 A2993 RMK A01 T10591085  RH  082%=      5-min Rain = 0
KBY1 131358Z 00000KT M06/M08 A2993 RMK A01 T10571083  RH  082%=      5-min Rain = 0
KBY1 131359Z 00000KT M06/M08 A2993 RMK A01 T10561082  RH  082%=      5-min Rain = 0
KBY1 131400Z 00000KT M06/M08 A2993 RMK A01 T10551081  RH  082%=      5-min Rain = 0
KBY1 131401Z 00000KT M05/M08 A2993 RMK A01 T10521078  RH  082%=      5-min Rain = 0
KBY1 131402Z 00000KT M05/M08 A2993 RMK A01 T10501076  RH  082%=      5-min Rain = 0
KBY1 131403Z 00000KT M05/M08 A2993 RMK A01 T10481076  RH  081%=      5-min Rain = 0
KBY1 131404Z 00000KT M05/M08 A2993 RMK A01 T10461076  RH  080%=      5-min Rain = 0
KBY1 131405Z 00000KT M04/M07 A2993 RMK A01 T10431074  RH  079%=      5-min Rain = 0
KBY1 131406Z 00000KT M04/M08 A2993 RMK A01 T10401075  RH  077%=      5-min Rain = 0
KBY1 131407Z 16000KT M04/M08 A2993 RMK A01 T10391076  RH  075%=      5-min Rain = 0
KBY1 131408Z 16001KT M04/M08 A2993 RMK A01 T10391078  RH  075%=      5-min Rain = 0
KBY1 131409Z 16001KT M04/M08 A2993 RMK A01 T10391077  RH  075%=      5-min Rain = 0
KBY1 131410Z 20001KT M04/M08 A2993 RMK A01 T10391077  RH  075%=      5-min Rain = 0
KBY1 131411Z 20001KT M04/M08 A2993 RMK A01 T10391077  RH  075%=      5-min Rain = 0
KBY1 131412Z 21001KT M04/M08 A2993 RMK A01 T10391077  RH  075%=      5-min Rain = 0
KBY1 131413Z 19000KT M04/M08 A2993 RMK A01 T10391076  RH  075%=      5-min Rain = 0
KBY1 131414Z 18000KT M04/M07 A2993 RMK A01 T10361074  RH  075%=      5-min Rain = 0
KBY1 131415Z 18001KT M03/M07 A2993 RMK A01 T10341074  RH  074%=      5-min Rain = 0
KBY1 131416Z 18001KT M03/M08 A2993 RMK A01 T10331075  RH  073%=      5-min Rain = 0
KBY1 131417Z 19001KT M03/M08 A2993 RMK A01 T10321075  RH  072%=      5-min Rain = 0
KBY1 131418Z 19001KT M03/M08 A2993 RMK A01 T10321076  RH  072%=      5-min Rain = 0
KBY1 131419Z 18002KT M03/M08 A2993 RMK A01 T10321079  RH  070%=      5-min Rain = 0
KBY1 131420Z 19002KT M03/M08 A2993 RMK A01 T10331079  RH  071%=      5-min Rain = 0
KBY1 131421Z 19002KT M03/M08 A2993 RMK A01 T10331078  RH  071%=      5-min Rain = 0
KBY1 131422Z 19002KT M03/M08 A2993 RMK A01 T10341077  RH  072%=      5-min Rain = 0
KBY1 131423Z 20001KT M03/M08 A2993 RMK A01 T10331076  RH  072%=      5-min Rain = 0
KBY1 131424Z 21001KT M03/M08 A2993 RMK A01 T10341077  RH  072%=      5-min Rain = 0
KBY1 131425Z 21001KT M04/M08 A2993 RMK A01 T10351076  RH  073%=      5-min Rain = 0
KBY1 131426Z 21001KT M04/M08 A2993 RMK A01 T10351076  RH  073%=      5-min Rain = 0
KBY1 131427Z 23001KT M04/M07 A2993 RMK A01 T10351074  RH  074%=      5-min Rain = 0
KBY1 131428Z 25001KT M03/M07 A2993 RMK A01 T10341072  RH  075%=      5-min Rain = 0
KBY1 131429Z 24001KT M03/M07 A2993 RMK A01 T10331072  RH  075%=      5-min Rain = 0
KBY1 131430Z 23001KT M03/M07 A2993 RMK A01 T10321071  RH  075%=      5-min Rain = 0
KBY1 131431Z 25001KT M03/M07 A2993 RMK A01 T10301067  RH  076%=      5-min Rain = 0
KBY1 131432Z 24002KT M03/M07 A2993 RMK A01 T10271066  RH  075%=      5-min Rain = 0
KBY1 131433Z 24001KT M02/M06 A2993 RMK A01 T10241063  RH  075%=      5-min Rain = 0
KBY1 131434Z 23001KT M02/M06 A2993 RMK A01 T10211061  RH  074%=      5-min Rain = 0
KBY1 131435Z 20001KT M02/M06 A2993 RMK A01 T10181061  RH  072%=      5-min Rain = 0
KBY1 131436Z 19002KT M02/M06 A2993 RMK A01 T10171064  RH  071%=      5-min Rain = 0
KBY1 131437Z 19002KT M02/M07 A2993 RMK A01 T10181066  RH  070%=      5-min Rain = 0
KBY1 131438Z 18001KT M02/M07 A2993 RMK A01 T10191066  RH  070%=      5-min Rain = 0
KBY1 131439Z 20001KT M02/M06 A2993 RMK A01 T10181064  RH  071%=      5-min Rain = 0
KBY1 131440Z 17001KT M02/M06 A2993 RMK A01 T10161064  RH  070%=      5-min Rain = 0
KBY1 131441Z 19000KT M01/M06 A2993 RMK A01 T10141063  RH  069%=      5-min Rain = 0
KBY1 131442Z 25001KT M01/M06 A2993 RMK A01 T10111061  RH  069%=      5-min Rain = 0
KBY1 131443Z 26002KT M01/M06 A2993 RMK A01 T10091062  RH  067%=      5-min Rain = 0
KBY1 131444Z 28004KT M01/M07 A2992 RMK A01 T10081066  RH  065%=      5-min Rain = 0
KBY1 131445Z 30003KT M01/M07 A2992 RMK A01 T10061069  RH  063%=      5-min Rain = 0
KBY1 131446Z 31004KT M01/M07 A2992 RMK A01 T10051069  RH  062%=      5-min Rain = 0
KBY1 131447Z 30004KT M01/M07 A2992 RMK A01 T10051070  RH  062%=      5-min Rain = 0
KBY1 131448Z 30003KT M00/M07 A2992 RMK A01 T10041069  RH  061%=      5-min Rain = 0
KBY1 131449Z 30004KT M00/M07 A2992 RMK A01 T10031068  RH  061%=      5-min Rain = 0
KBY1 131450Z 31004KT M00/M07 A2992 RMK A01 T10021067  RH  061%=      5-min Rain = 0
KBY1 131451Z 30005KT 00/07 A2992 RMK A01 T00-00-66  RH  061%=      5-min Rain = 0
KBY1 131452Z 31004KT 00/M07 A2992 RMK A01 T00011066  RH  061%=      5-min Rain = 0
KBY1 131453Z 30005KT 00/M07 A2992 RMK A01 T00021065  RH  060%=      5-min Rain = 0
KBY1 131454Z 31004KT 00/M07 A2993 RMK A01 T00041065  RH  060%=      5-min Rain = 0
KBY1 131455Z 30005KT 00/M07 A2992 RMK A01 T00041065  RH  060%=      5-min Rain = 0
KBY1 131456Z 28004KT 01/M07 A2992 RMK A01 T00051065  RH  060%=      5-min Rain = 0
KBY1 131457Z 29004KT 00/M07 A2992 RMK A01 T00041065  RH  060%=      5-min Rain = 0
KBY1 131458Z 31003KT 01/M06 A2992 RMK A01 T00061063  RH  060%=      5-min Rain = 0
KBY1 131459Z 29004KT 01/M06 A2992 RMK A01 T00081061  RH  060%=      5-min Rain = 0
KBY1 131500Z 30005KT 01/M06 A2992 RMK A01 T00101061  RH  059%=      5-min Rain = 0
KBY1 131501Z 31004KT 01/M06 A2992 RMK A01 T00111062  RH  058%=      5-min Rain = 0
KBY1 131502Z 30004KT 01/M06 A2992 RMK A01 T00141060  RH  058%=      5-min Rain = 0
KBY1 131503Z 31006KT 02/M06 A2993 RMK A01 T00151061  RH  057%=      5-min Rain = 0
KBY1 131504Z 31005KT 02/M06 A2993 RMK A01 T00151061  RH  057%=      5-min Rain = 0
KBY1 131505Z 30005KT 02/M06 A2993 RMK A01 T00151060  RH  057%=      5-min Rain = 0
KBY1 131506Z 30005KT 02/M06 A2992 RMK A01 T00171059  RH  057%=      5-min Rain = 0
KBY1 131507Z 30005KT 02/M06 A2992 RMK A01 T00181059  RH  057%=      5-min Rain = 0
KBY1 131508Z 29004KT 02/M06 A2992 RMK A01 T00191058  RH  057%=      5-min Rain = 0
KBY1 131509Z 29007KT 02/M06 A2992 RMK A01 T00211057  RH  056%=      5-min Rain = 0
KBY1 131510Z 29007KT 02/M06 A2992 RMK A01 T00221058  RH  055%=      5-min Rain = 0
KBY1 131511Z 29008KT 02/M06 A2992 RMK A01 T00231058  RH  055%=      5-min Rain = 0
KBY1 131512Z 29009KT 03/M06 A2992 RMK A01 T00251058  RH  054%=      5-min Rain = 0
KBY1 131513Z 29009KT 03/M06 A2992 RMK A01 T00251058  RH  054%=      5-min Rain = 0
KBY1 131514Z 28007KT 03/M06 A2992 RMK A01 T00271057  RH  054%=      5-min Rain = 0
KBY1 131515Z 29008KT 03/M06 A2992 RMK A01 T00291056  RH  054%=      5-min Rain = 0
KBY1 131516Z 29009KT 03/M06 A2992 RMK A01 T00321055  RH  053%=      5-min Rain = 0
KBY1 131517Z 29007KT 03/M06 A2992 RMK A01 T00341055  RH  052%=      5-min Rain = 0
KBY1 131518Z 27007KT 04/M06 A2992 RMK A01 T00361055  RH  052%=      5-min Rain = 0
KBY1 131519Z 27008KT 04/M06 A2992 RMK A01 T00371055  RH  051%=      5-min Rain = 0
KBY1 131520Z 29009KT 04/M06 A2992 RMK A01 T00381055  RH  051%=      5-min Rain = 0
KBY1 131521Z 29007KT 04/M06 A2992 RMK A01 T00381056  RH  050%=      5-min Rain = 0
KBY1 131522Z 29008KT 04/M06 A2992 RMK A01 T00391055  RH  050%=      5-min Rain = 0
KBY1 131523Z 29008KT 04/M06 A2992 RMK A01 T00411055  RH  050%=      5-min Rain = 0
KBY1 131524Z 28006KT 04/M05 A2992 RMK A01 T00411054  RH  050%=      5-min Rain = 0
KBY1 131525Z 26007KT 04/M05 A2992 RMK A01 T00431052  RH  050%=      5-min Rain = 0
KBY1 131526Z 28006KT 04/M05 A2992 RMK A01 T00441053  RH  049%=      5-min Rain = 0
KBY1 131527Z 29007KT 05/M05 A2992 RMK A01 T00451053  RH  049%=      5-min Rain = 0
KBY1 131528Z 28006KT 05/M05 A2992 RMK A01 T00451054  RH  049%=      5-min Rain = 0
KBY1 131529Z 30006KT 05/M05 A2992 RMK A01 T00451053  RH  049%=      5-min Rain = 0
KBY1 131530Z 29007KT 05/M05 A2992 RMK A01 T00481052  RH  049%=      5-min Rain = 0
KBY1 131531Z 29009KT 05/M05 A2992 RMK A01 T00491053  RH  048%=      5-min Rain = 0
KBY1 131532Z 29011KT 05/M05 A2992 RMK A01 T00491054  RH  047%=      5-min Rain = 0
KBY1 131533Z 29010KT 05/M05 A2992 RMK A01 T00481054  RH  048%=      5-min Rain = 0
KBY1 131534Z 28006KT 05/M05 A2992 RMK A01 T00481053  RH  048%=      5-min Rain = 0
KBY1 131535Z 28007KT 05/M05 A2992 RMK A01 T00501052  RH  048%=      5-min Rain = 0
KBY1 131536Z 29008KT 05/M05 A2992 RMK A01 T00531050  RH  047%=      5-min Rain = 0
KBY1 131537Z 30009KT 06/M05 A2992 RMK A01 T00551051  RH  046%=      5-min Rain = 0
KBY1 131538Z 28008KT 06/M05 A2992 RMK A01 T00551052  RH  046%=      5-min Rain = 0
KBY1 131539Z 28006KT 06/M05 A2992 RMK A01 T00571050  RH  046%=      5-min Rain = 0
KBY1 131540Z 29006KT 06/M05 A2992 RMK A01 T00591050  RH  045%=      5-min Rain = 0
KBY1 131541Z 28007KT 06/M05 A2992 RMK A01 T00601051  RH  045%=      5-min Rain = 0
KBY1 131542Z 27010KT 06/M05 A2992 RMK A01 T00601051  RH  045%=      5-min Rain = 0
KBY1 131543Z 28010KT 06/M05 A2992 RMK A01 T00591052  RH  045%=      5-min Rain = 0
KBY1 131544Z 27010KT 06/M05 A2992 RMK A01 T00581052  RH  045%=      5-min Rain = 0
KBY1 131545Z 27010KT 06/M05 A2992 RMK A01 T00591051  RH  045%=      5-min Rain = 0
KBY1 131546Z 26010KT 06/M05 A2992 RMK A01 T00611049  RH  045%=      5-min Rain = 0
KBY1 131547Z 28008KT 06/M05 A2992 RMK A01 T00621050  RH  044%=      5-min Rain = 0
KBY1 131548Z 27009KT 06/M05 A2992 RMK A01 T00631050  RH  044%=      5-min Rain = 0
KBY1 131549Z 28009G14KT 07/M05 A2992 RMK A01 T00651050  RH  044%=      5-min Rain = 0
KBY1 131550Z 27007KT 07/M05 A2992 RMK A01 T00661049  RH  044%=      5-min Rain = 0
KBY1 131551Z 26010KT 07/M05 A2992 RMK A01 T00681048  RH  043%=      5-min Rain = 0
KBY1 131552Z 27011KT 07/M05 A2992 RMK A01 T00691048  RH  043%=      5-min Rain = 0
KBY1 131553Z 27009KT 07/M05 A2992 RMK A01 T00691049  RH  043%=      5-min Rain = 0
KBY1 131554Z 30011KT 07/M05 A2992 RMK A01 T00691049  RH  043%=      5-min Rain = 0
KBY1 131555Z 29010KT 07/M05 A2992 RMK A01 T00691049  RH  043%=      5-min Rain = 0
KBY1 131556Z 27008KT 07/M05 A2992 RMK A01 T00691049  RH  042%=      5-min Rain = 0
KBY1 131557Z 29012KT 07/M05 A2992 RMK A01 T00711048  RH  042%=      5-min Rain = 0
KBY1 131558Z 27007KT 07/M05 A2992 RMK A01 T00731048  RH  042%=      5-min Rain = 0
KBY1 131559Z 27008G14KT 07/M05 A2992 RMK A01 T00741047  RH  042%=      5-min Rain = 0
KBY1 131600Z 27012KT 08/M05 A2992 RMK A01 T00751048  RH  041%=      5-min Rain = 0
KBY1 131601Z 28010KT 08/M05 A2992 RMK A01 T00751049  RH  041%=      5-min Rain = 0
KBY1 131602Z 29009KT 08/M05 A2992 RMK A01 T00751049  RH  041%=      5-min Rain = 0
KBY1 131603Z 27011KT 08/M05 A2992 RMK A01 T00751049  RH  041%=      5-min Rain = 0
KBY1 131604Z 27010G15KT 08/M05 A2992 RMK A01 T00761049  RH  041%=      5-min Rain = 0
KBY1 131605Z 27010KT 08/M05 A2992 RMK A01 T00771049  RH  041%=      5-min Rain = 0
KBY1 131606Z 28011KT 08/M05 A2992 RMK A01 T00791047  RH  041%=      5-min Rain = 0
KBY1 131607Z 29010KT 08/M05 A2992 RMK A01 T00801048  RH  040%=      5-min Rain = 0
KBY1 131608Z 29010KT 08/M05 A2992 RMK A01 T00801049  RH  040%=      5-min Rain = 0
KBY1 131609Z 28010KT 08/M05 A2992 RMK A01 T00811049  RH  039%=      5-min Rain = 0
KBY1 131610Z 27012KT 08/M05 A2992 RMK A01 T00811049  RH  039%=      5-min Rain = 0
KBY1 131611Z 27012G18KT 08/M05 A2992 RMK A01 T00821049  RH  039%=      5-min Rain = 0
KBY1 131612Z 27012KT 08/M05 A2992 RMK A01 T00821050  RH  039%=      5-min Rain = 0
KBY1 131613Z 29012KT 08/M05 A2992 RMK A01 T00811050  RH  039%=      5-min Rain = 0
KBY1 131614Z 27013KT 08/M05 A2992 RMK A01 T00811050  RH  039%=      5-min Rain = 0
KBY1 131615Z 26015KT 08/M05 A2992 RMK A01 T00811051  RH  039%=      5-min Rain = 0
KBY1 131616Z 27013KT 08/M05 A2992 RMK A01 T00811051  RH  039%=      5-min Rain = 0
KBY1 131617Z 27013KT 08/M05 A2992 RMK A01 T00821051  RH  039%=      5-min Rain = 0
KBY1 131618Z 27011KT 08/M05 A2992 RMK A01 T00821051  RH  039%=      5-min Rain = 0
KBY1 131619Z 27014G19KT 08/M05 A2992 RMK A01 T00821050  RH  039%=      5-min Rain = 0
KBY1 131620Z 26013KT 08/M05 A2992 RMK A01 T00831050  RH  038%=      5-min Rain = 0
KBY1 131621Z 27011KT 08/M05 A2992 RMK A01 T00831050  RH  038%=      5-min Rain = 0
KBY1 131622Z 27011KT 08/M05 A2992 RMK A01 T00841050  RH  038%=      5-min Rain = 0
KBY1 131623Z 27010KT 09/M05 A2992 RMK A01 T00861049  RH  038%=      5-min Rain = 0
KBY1 131624Z 28008G13KT 09/M05 A2992 RMK A01 T00871049  RH  038%=      5-min Rain = 0
KBY1 131625Z 28008KT 09/M05 A2992 RMK A01 T00881048  RH  038%=      5-min Rain = 0
KBY1 131626Z 27011G16KT 09/M05 A2992 RMK A01 T00891049  RH  037%=      5-min Rain = 0
KBY1 131627Z 28009KT 09/M05 A2992 RMK A01 T00891049  RH  037%=      5-min Rain = 0
KBY1 131628Z 27011KT 09/M05 A2992 RMK A01 T00891050  RH  037%=      5-min Rain = 0
KBY1 131629Z 29007KT 09/M05 A2992 RMK A01 T00891049  RH  037%=      5-min Rain = 0
KBY1 131630Z 29008G13KT 09/M05 A2992 RMK A01 T00911047  RH  038%=      5-min Rain = 0
KBY1 131631Z 29008KT 09/M05 A2993 RMK A01 T00931047  RH  037%=      5-min Rain = 0
KBY1 131632Z 28008KT 09/M05 A2993 RMK A01 T00931048  RH  036%=      5-min Rain = 0
KBY1 131633Z 28009KT 09/M05 A2993 RMK A01 T00931050  RH  036%=      5-min Rain = 0
KBY1 131634Z 27007KT 09/M05 A2993 RMK A01 T00941049  RH  036%=      5-min Rain = 0
KBY1 131635Z 30006KT 10/M05 A2993 RMK A01 T00961047  RH  036%=      5-min Rain = 0
KBY1 131636Z 28007KT 10/M05 A2993 RMK A01 T00991047  RH  036%=      5-min Rain = 0
KBY1 131637Z 29007KT 10/M05 A2993 RMK A01 T01011048  RH  035%=      5-min Rain = 0
KBY1 131638Z 28009KT 10/M05 A2993 RMK A01 T01001050  RH  034%=      5-min Rain = 0
KBY1 131639Z 27009KT 10/M05 A2993 RMK A01 T00981051  RH  035%=      5-min Rain = 0
KBY1 131640Z 28007KT 10/M05 A2993 RMK A01 T00981049  RH  035%=      5-min Rain = 0
KBY1 131641Z 27005G11KT 10/M05 A2993 RMK A01 T01011046  RH  035%=      5-min Rain = 0
KBY1 131642Z 27011KT 10/M05 A2993 RMK A01 T01041047  RH  034%=      5-min Rain = 0
KBY1 131643Z 27010KT 10/M05 A2993 RMK A01 T01031050  RH  034%=      5-min Rain = 0
KBY1 131644Z 27010KT 10/M05 A2993 RMK A01 T01021050  RH  034%=      5-min Rain = 0
KBY1 131645Z 26010KT 10/M05 A2993 RMK A01 T01011050  RH  034%=      5-min Rain = 0
KBY1 131646Z 27011KT 10/M05 A2993 RMK A01 T01021049  RH  034%=      5-min Rain = 0
KBY1 131647Z 27009KT 10/M05 A2993 RMK A01 T01041049  RH  034%=      5-min Rain = 0
KBY1 131648Z 26010KT 10/M05 A2993 RMK A01 T01041050  RH  034%=      5-min Rain = 0
KBY1 131649Z 26010KT 10/M05 A2993 RMK A01 T01031049  RH  034%=      5-min Rain = 0
KBY1 131650Z 26008KT 10/M05 A2993 RMK A01 T01041048  RH  034%=      5-min Rain = 0
KBY1 131651Z 27009KT 11/M05 A2993 RMK A01 T01051048  RH  034%=      5-min Rain = 0
KBY1 131652Z 26008KT 11/M05 A2993 RMK A01 T01081046  RH  034%=      5-min Rain = 0
KBY1 131653Z 26008KT 11/M05 A2993 RMK A01 T01091048  RH  033%=      5-min Rain = 0
KBY1 131654Z 27007KT 11/M05 A2993 RMK A01 T01081047  RH  033%=      5-min Rain = 0
KBY1 131655Z 28009KT 11/M05 A2993 RMK A01 T01101047  RH  033%=      5-min Rain = 0
KBY1 131656Z 29011KT 11/M05 A2993 RMK A01 T01111050  RH  032%=      5-min Rain = 0
KBY1 131657Z 29009KT 11/M05 A2993 RMK A01 T01091052  RH  032%=      5-min Rain = 0
KBY1 131658Z 29008KT 11/M05 A2993 RMK A01 T01091051  RH  032%=      5-min Rain = 0
KBY1 131659Z 29008KT 11/M05 A2993 RMK A01 T01101049  RH  032%=      5-min Rain = 0
KBY1 131700Z 28008KT 11/M05 A2993 RMK A01 T01121048  RH  032%=      5-min Rain = 0
KBY1 131701Z 27012KT 11/M05 A2993 RMK A01 T01131048  RH  032%=      5-min Rain = 0
KBY1 131702Z 27010KT 11/M05 A2993 RMK A01 T01121051  RH  032%=      5-min Rain = 0
KBY1 131703Z 27007KT 11/M05 A2993 RMK A01 T01111050  RH  032%=      5-min Rain = 0
KBY1 131704Z 28010KT 11/M05 A2993 RMK A01 T01131049  RH  032%=      5-min Rain = 0
KBY1 131705Z 29011KT 11/M05 A2993 RMK A01 T01141051  RH  031%=      5-min Rain = 0
KBY1 131706Z 28009KT 11/M05 A2993 RMK A01 T01131052  RH  031%=      5-min Rain = 0
KBY1 131707Z 27008KT 11/M05 A2993 RMK A01 T01121051  RH  031%=      5-min Rain = 0
KBY1 131708Z 27010KT 11/M05 A2993 RMK A01 T01121050  RH  032%=      5-min Rain = 0
KBY1 131709Z 27011KT 11/M05 A2993 RMK A01 T01141050  RH  031%=      5-min Rain = 0
KBY1 131710Z 27009KT 11/M05 A2993 RMK A01 T01141051  RH  031%=      5-min Rain = 0
KBY1 131711Z 27011KT 11/M05 A2993 RMK A01 T01141051  RH  031%=      5-min Rain = 0
KBY1 131712Z 26009KT 12/M05 A2993 RMK A01 T01151050  RH  031%=      5-min Rain = 0
KBY1 131713Z 28008KT 12/M05 A2993 RMK A01 T01171048  RH  031%=      5-min Rain = 0
KBY1 131714Z 29009KT 12/M05 A2992 RMK A01 T01201049  RH  030%=      5-min Rain = 0
KBY1 131715Z 29007G12KT 12/M05 A2992 RMK A01 T01211049  RH  030%=      5-min Rain = 0
KBY1 131716Z 27010KT 12/M05 A2992 RMK A01 T01221049  RH  030%=      5-min Rain = 0
KBY1 131717Z 28009KT 12/M05 A2992 RMK A01 T01201049  RH  030%=      5-min Rain = 0
KBY1 131718Z 28010KT 12/M05 A2992 RMK A01 T01201050  RH  030%=      5-min Rain = 0
KBY1 131719Z 27011KT 12/M05 A2992 RMK A01 T01191050  RH  030%=      5-min Rain = 0
KBY1 131720Z 27008KT 12/M05 A2992 RMK A01 T01191051  RH  030%=      5-min Rain = 0
KBY1 131721Z 28006KT 12/M05 A2992 RMK A01 T01201049  RH  030%=      5-min Rain = 0
KBY1 131722Z 26005KT 12/M05 A2992 RMK A01 T01221047  RH  030%=      5-min Rain = 0
KBY1 131723Z 27005G10KT 13/M04 A2992 RMK A01 T01281043  RH  030%=      5-min Rain = 0
KBY1 131724Z 27007KT 13/M05 A2992 RMK A01 T01301047  RH  029%=      5-min Rain = 0
KBY1 131725Z 26009KT 13/M05 A2992 RMK A01 T01291049  RH  029%=      5-min Rain = 0
KBY1 131726Z 26007KT 13/M05 A2992 RMK A01 T01251051  RH  029%=      5-min Rain = 0
KBY1 131727Z 26008KT 12/M05 A2992 RMK A01 T01241050  RH  029%=      5-min Rain = 0
KBY1 131728Z 26008KT 13/M05 A2992 RMK A01 T01251048  RH  030%=      5-min Rain = 0
KBY1 131729Z 26007KT 13/M05 A2992 RMK A01 T01271046  RH  030%=      5-min Rain = 0
KBY1 131730Z 25006KT 13/M05 A2992 RMK A01 T01291045  RH  029%=      5-min Rain = 0
KBY1 131731Z 27005KT 13/M04 A2992 RMK A01 T01331044  RH  029%=      5-min Rain = 0
KBY1 131732Z 26006KT 13/M05 A2992 RMK A01 T01341045  RH  028%=      5-min Rain = 0
KBY1 131733Z 27005G10KT 14/M04 A2992 RMK A01 T01361044  RH  028%=      5-min Rain = 0
KBY1 131734Z 27007KT 14/M05 A2992 RMK A01 T01361046  RH  028%=      5-min Rain = 0
KBY1 131735Z 27005KT 14/M05 A2992 RMK A01 T01371046  RH  028%=      5-min Rain = 0
KBY1 131736Z 27008KT 14/M05 A2992 RMK A01 T01381045  RH  028%=      5-min Rain = 0
KBY1 131737Z 27008KT 14/M05 A2992 RMK A01 T01361048  RH  028%=      5-min Rain = 0
KBY1 131738Z 27007KT 13/M05 A2992 RMK A01 T01341046  RH  028%=      5-min Rain = 0
KBY1 131739Z 26008KT 14/M05 A2992 RMK A01 T01351045  RH  028%=      5-min Rain = 0
KBY1 131740Z 26006KT 14/M05 A2992 RMK A01 T01361046  RH  028%=      5-min Rain = 0
KBY1 131741Z 27008KT 14/M04 A2992 RMK A01 T01371044  RH  028%=      5-min Rain = 0
KBY1 131742Z 26006KT 14/M04 A2992 RMK A01 T01391044  RH  028%=      5-min Rain = 0
KBY1 131743Z 27008G13KT 14/M05 A2992 RMK A01 T01411045  RH  027%=      5-min Rain = 0
KBY1 131744Z 29010KT 14/M05 A2992 RMK A01 T01391050  RH  027%=      5-min Rain = 0
KBY1 131745Z 27008KT 14/M05 A2992 RMK A01 T01361051  RH  027%=      5-min Rain = 0
KBY1 131746Z 26008KT 14/M05 A2992 RMK A01 T01351048  RH  028%=      5-min Rain = 0
KBY1 131747Z 27009KT 14/M05 A2992 RMK A01 T01371047  RH  028%=      5-min Rain = 0
KBY1 131748Z 26010KT 14/M05 A2992 RMK A01 T01381046  RH  027%=      5-min Rain = 0
KBY1 131749Z 26009G14KT 14/M05 A2992 RMK A01 T01381047  RH  027%=      5-min Rain = 0
KBY1 131750Z 27009KT 14/M05 A2991 RMK A01 T01391048  RH  027%=      5-min Rain = 0
KBY1 131751Z 26008KT 14/M05 A2991 RMK A01 T01381048  RH  027%=      5-min Rain = 0
KBY1 131752Z 26007KT 14/M05 A2991 RMK A01 T01381047  RH  027%=      5-min Rain = 0
KBY1 131753Z 26007KT 14/M04 A2991 RMK A01 T01411044  RH  028%=      5-min Rain = 0
KBY1 131754Z 28007KT 15/M04 A2991 RMK A01 T01451044  RH  027%=      5-min Rain = 0
KBY1 131755Z 27007KT 15/M05 A2991 RMK A01 T01461045  RH  026%=      5-min Rain = 0
KBY1 131756Z 28006KT 15/M05 A2991 RMK A01 T01471045  RH  026%=      5-min Rain = 0
KBY1 131757Z 27007KT 15/M05 A2991 RMK A01 T01471045  RH  026%=      5-min Rain = 0
KBY1 131758Z 27007KT 15/M05 A2991 RMK A01 T01471046  RH  026%=      5-min Rain = 0
KBY1 131759Z 27008KT 15/M04 A2991 RMK A01 T01481043  RH  026%=      5-min Rain = 0
KBY1 131800Z 26007KT 15/M04 A2991 RMK A01 T01501043  RH  026%=      5-min Rain = 0
KBY1 131801Z 28006KT 15/M04 A2991 RMK A01 T01521043  RH  026%=      5-min Rain = 0
KBY1 131802Z 27008G13KT 15/M04 A2991 RMK A01 T01541043  RH  025%=      5-min Rain = 0
KBY1 131803Z 27010KT 15/M04 A2991 RMK A01 T01541044  RH  025%=      5-min Rain = 0
KBY1 131804Z 27008KT 15/M05 A2991 RMK A01 T01511046  RH  025%=      5-min Rain = 0
KBY1 131805Z 27006KT 15/M05 A2991 RMK A01 T01501046  RH  026%=      5-min Rain = 0
KBY1 131806Z 28007KT 15/M04 A2991 RMK A01 T01511044  RH  026%=      5-min Rain = 0
KBY1 131807Z 27009KT 15/M05 A2991 RMK A01 T01521045  RH  025%=      5-min Rain = 0
KBY1 131808Z 27008KT 15/M05 A2991 RMK A01 T01521046  RH  025%=      5-min Rain = 0
KBY1 131809Z 28007KT 15/M05 A2991 RMK A01 T01521047  RH  025%=      5-min Rain = 0
KBY1 131810Z 25010KT 15/M04 A299 RMK A01 T01541044  RH  025%=      5-min Rain = 0
KBY1 131811Z 26008KT 15/M05 A299 RMK A01 T01541045  RH  025%=      5-min Rain = 0
KBY1 131812Z 27010KT 16/M04 A299 RMK A01 T01561044  RH  025%=      5-min Rain = 0
KBY1 131813Z 26008KT 16/M05 A299 RMK A01 T01561046  RH  025%=      5-min Rain = 0
KBY1 131814Z 27009KT 15/M05 A299 RMK A01 T01541046  RH  025%=      5-min Rain = 0
KBY1 131815Z 26009KT 16/M05 A299 RMK A01 T01551045  RH  025%=      5-min Rain = 0
KBY1 131816Z 26009KT 16/M04 A299 RMK A01 T01571044  RH  025%=      5-min Rain = 0
KBY1 131817Z 28008KT 16/M04 A299 RMK A01 T01581044  RH  024%=      5-min Rain = 0
KBY1 131818Z 28008KT 16/M04 A299 RMK A01 T01601044  RH  024%=      5-min Rain = 0
KBY1 131819Z 28007KT 16/M04 A299 RMK A01 T01611044  RH  024%=      5-min Rain = 0
KBY1 131820Z 27008KT 16/M04 A299 RMK A01 T01611043  RH  024%=      5-min Rain = 0
KBY1 131821Z 28009KT 16/M04 A299 RMK A01 T01631042  RH  024%=      5-min Rain = 0
KBY1 131822Z 28008KT 16/M04 A299 RMK A01 T01641043  RH  024%=      5-min Rain = 0
KBY1 131823Z 27009KT 16/M04 A299 RMK A01 T01641043  RH  024%=      5-min Rain = 0
KBY1 131824Z 27010KT 17/M04 A299 RMK A01 T01651044  RH  023%=      5-min Rain = 0
KBY1 131825Z 27009KT 16/M05 A299 RMK A01 T01641045  RH  024%=      5-min Rain = 0
KBY1 131826Z 29008KT 16/M04 A299 RMK A01 T01641044  RH  024%=      5-min Rain = 0
KBY1 131827Z 29006KT 17/M04 A299 RMK A01 T01651043  RH  024%=      5-min Rain = 0
KBY1 131828Z 27007KT 17/M04 A299 RMK A01 T01671042  RH  024%=      5-min Rain = 0
KBY1 131829Z 27007KT 17/M04 A299 RMK A01 T01701042  RH  023%=      5-min Rain = 0
KBY1 131830Z 27010KT 17/M04 A299 RMK A01 T01711044  RH  023%=      5-min Rain = 0
KBY1 131831Z 29008G13KT 17/M05 A299 RMK A01 T01691045  RH  023%=      5-min Rain = 0
KBY1 131832Z 28007KT 17/M04 A299 RMK A01 T01691044  RH  023%=      5-min Rain = 0
KBY1 131833Z 27009KT 17/M05 A299 RMK A01 T01711045  RH  023%=      5-min Rain = 0
KBY1 131834Z 27010KT 17/M05 A299 RMK A01 T01711045  RH  023%=      5-min Rain = 0
KBY1 131835Z 27008KT 17/M05 A299 RMK A01 T01711046  RH  022%=      5-min Rain = 0
KBY1 131836Z 28005KT 17/M05 A299 RMK A01 T01711045  RH  022%=      5-min Rain = 0
KBY1 131837Z 28006KT 17/M04 A299 RMK A01 T01731042  RH  023%=      5-min Rain = 0
KBY1 131838Z 26007KT 17/M04 A299 RMK A01 T01741044  RH  022%=      5-min Rain = 0
KBY1 131839Z 27005KT 17/M05 A299 RMK A01 T01741048  RH  022%=      5-min Rain = 0
KBY1 131840Z 25006KT 17/M05 A299 RMK A01 T01741046  RH  022%=      5-min Rain = 0
KBY1 131841Z 24005KT 18/M05 A2989 RMK A01 T01761045  RH  022%=      5-min Rain = 0
KBY1 131842Z 26008KT 18/M04 A2989 RMK A01 T01771044  RH  022%=      5-min Rain = 0
KBY1 131843Z 27004KT 18/M05 A2989 RMK A01 T01781046  RH  021%=      5-min Rain = 0
KBY1 131844Z 25005KT 18/M04 A2989 RMK A01 T01771043  RH  022%=      5-min Rain = 0
KBY1 131845Z 24007KT 18/M04 A2989 RMK A01 T01801042  RH  022%=      5-min Rain = 0
KBY1 131846Z 26007KT 18/M04 A2989 RMK A01 T01811043  RH  021%=      5-min Rain = 0
KBY1 131847Z 24008KT 18/M04 A2989 RMK A01 T01831042  RH  021%=      5-min Rain = 0
KBY1 131848Z 24008KT 18/M05 A2988 RMK A01 T01831045  RH  021%=      5-min Rain = 0
KBY1 131849Z 24008KT 18/M04 A2988 RMK A01 T01821044  RH  021%=      5-min Rain = 0
KBY1 131850Z 24007KT 18/M04 A2988 RMK A01 T01821043  RH  021%=      5-min Rain = 0
KBY1 131851Z 27008KT 19/M04 A2988 RMK A01 T01851041  RH  021%=      5-min Rain = 0
KBY1 131852Z 26007KT 19/M04 A2988 RMK A01 T01871041  RH  021%=      5-min Rain = 0
KBY1 131853Z 27008KT 19/M04 A2988 RMK A01 T01881043  RH  020%=      5-min Rain = 0
KBY1 131854Z 27008KT 19/M05 A2988 RMK A01 T01871046  RH  020%=      5-min Rain = 0
KBY1 131855Z 26007KT 19/M05 A2988 RMK A01 T01861045  RH  020%=      5-min Rain = 0
KBY1 131856Z 26009KT 19/M04 A2988 RMK A01 T01861043  RH  021%=      5-min Rain = 0
KBY1 131857Z 26008KT 19/M04 A2988 RMK A01 T01871043  RH  021%=      5-min Rain = 0
KBY1 131858Z 26008KT 19/M05 A2988 RMK A01 T01881045  RH  020%=      5-min Rain = 0
KBY1 131859Z 27009KT 19/M04 A2988 RMK A01 T01891044  RH  020%=      5-min Rain = 0
KBY1 131900Z 25008KT 19/M05 A2988 RMK A01 T01881045  RH  020%=      5-min Rain = 0
KBY1 131901Z 24007KT 19/M05 A2988 RMK A01 T01881045  RH  020%=      5-min Rain = 0
KBY1 131902Z 24006KT 19/M04 A2988 RMK A01 T01881043  RH  020%=      5-min Rain = 0
KBY1 131903Z 25006KT 19/M04 A2988 RMK A01 T01901043  RH  020%=      5-min Rain = 0
KBY1 131904Z 25007KT 19/M04 A2988 RMK A01 T01911044  RH  020%=      5-min Rain = 0
KBY1 131905Z 25008KT 19/M04 A2988 RMK A01 T01911044  RH  020%=      5-min Rain = 0
KBY1 131906Z 26005KT 19/M05 A2988 RMK A01 T01911045  RH  020%=      5-min Rain = 0
KBY1 131907Z 26008KT 19/M05 A2987 RMK A01 T01911045  RH  020%=      5-min Rain = 0
KBY1 131908Z 26007KT 19/M04 A2987 RMK A01 T01921043  RH  020%=      5-min Rain = 0
KBY1 131909Z 26008KT 19/M04 A2987 RMK A01 T01931044  RH  020%=      5-min Rain = 0
KBY1 131910Z 27007KT 19/M04 A2987 RMK A01 T01931044  RH  020%=      5-min Rain = 0
KBY1 131911Z 27006KT 19/M04 A2987 RMK A01 T01941044  RH  020%=      5-min Rain = 0
KBY1 131912Z 26007KT 20/M04 A2987 RMK A01 T01951042  RH  020%=      5-min Rain = 0
KBY1 131913Z 26008KT 20/M04 A2987 RMK A01 T01971043  RH  019%=      5-min Rain = 0
KBY1 131914Z 25006KT 20/M04 A2987 RMK A01 T01971043  RH  019%=      5-min Rain = 0
KBY1 131915Z 25007KT 20/M04 A2987 RMK A01 T01971043  RH  019%=      5-min Rain = 0
KBY1 131916Z 26005KT 20/M04 A2987 RMK A01 T01991043  RH  019%=      5-min Rain = 0
KBY1 131917Z 26004KT 20/M04 A2987 RMK A01 T01991043  RH  019%=      5-min Rain = 0
KBY1 131918Z 26005KT 20/M04 A2987 RMK A01 T02001043  RH  019%=      5-min Rain = 0
KBY1 131919Z 25007KT 20/M04 A2987 RMK A01 T02011041  RH  019%=      5-min Rain = 0
KBY1 131920Z 25007KT 20/M04 A2987 RMK A01 T02031042  RH  019%=      5-min Rain = 0
KBY1 131921Z 23006KT 20/M04 A2986 RMK A01 T02041042  RH  019%=      5-min Rain = 0
KBY1 131922Z 23007KT 21/M04 A2986 RMK A01 T02051041  RH  019%=      5-min Rain = 0
KBY1 131923Z 23005KT 21/M04 A2986 RMK A01 T02051042  RH  019%=      5-min Rain = 0
KBY1 131924Z 23005KT 21/M04 A2986 RMK A01 T02071041  RH  019%=      5-min Rain = 0
KBY1 131925Z 25006KT 21/M05 A2986 RMK A01 T02091045  RH  018%=      5-min Rain = 0
KBY1 131926Z 25007KT 21/M05 A2986 RMK A01 T02091046  RH  018%=      5-min Rain = 0
KBY1 131927Z 35007KT 21/M05 A2986 RMK A01 T02101049  RH  017%=      5-min Rain = 0
KBY1 131928Z 02012KT 22/M06 A2986 RMK A01 T02161060  RH  015%=      5-min Rain = 0
KBY1 131929Z 02013KT 22/M07 A2986 RMK A01 T02241069  RH  014%=      5-min Rain = 0
KBY1 131930Z 01015KT 23/M10 A2986 RMK A01 T02291095  RH  011%=      5-min Rain = 0
KBY1 131931Z 36013KT 23/M10 A2986 RMK A01 T02341101  RH  010%=      5-min Rain = 0
KBY1 131932Z 00011KT 24/M10 A2986 RMK A01 T02371103  RH  010%=      5-min Rain = 0
KBY1 131933Z 01012KT 24/M10 A2986 RMK A01 T02391101  RH  010%=      5-min Rain = 0
KBY1 131934Z 01014KT 24/M10 A2986 RMK A01 T02411099  RH  010%=      5-min Rain = 0
KBY1 131935Z 00011KT 24/M10 A2986 RMK A01 T02421099  RH  010%=      5-min Rain = 0
KBY1 131936Z 01012KT 24/M10 A2986 RMK A01 T02421101  RH  009%=      5-min Rain = 0
KBY1 131937Z 00014KT 24/M10 A2986 RMK A01 T02411103  RH  009%=      5-min Rain = 0
KBY1 131938Z 36019KT 24/M11 A2986 RMK A01 T02391106  RH  009%=      5-min Rain = 0
KBY1 131939Z 00014G20KT 24/M11 A2986 RMK A01 T02391106  RH  009%=      5-min Rain = 0
KBY1 131940Z 02014KT 24/M10 A2986 RMK A01 T02381103  RH  009%=      5-min Rain = 0
KBY1 131941Z 02014G22KT 24/M10 A2986 RMK A01 T02411098  RH  010%=      5-min Rain = 0
KBY1 131942Z 02017KT 24/M10 A2987 RMK A01 T02411104  RH  009%=      5-min Rain = 0
KBY1 131943Z 01015G20KT 24/M11 A2987 RMK A01 T02391105  RH  009%=      5-min Rain = 0
KBY1 131944Z 02015KT 24/M10 A2987 RMK A01 T02391103  RH  009%=      5-min Rain = 0
KBY1 131945Z 02016KT 24/M11 A2987 RMK A01 T02381106  RH  009%=      5-min Rain = 0
KBY1 131946Z 02015G21KT 24/M10 A2987 RMK A01 T02381104  RH  009%=      5-min Rain = 0
KBY1 131947Z 03019KT 24/M10 A2987 RMK A01 T02391104  RH  009%=      5-min Rain = 0
KBY1 131948Z 03019G25KT 24/M10 A2987 RMK A01 T02381104  RH  009%=      5-min Rain = 0
KBY1 131949Z 03019G25KT 24/M11 A2987 RMK A01 T02361105  RH  009%=      5-min Rain = 0
KBY1 131950Z 03018KT 23/M10 A2987 RMK A01 T02341104  RH  010%=      5-min Rain = 0
KBY1 131951Z 03018KT 23/M10 A2987 RMK A01 T02341102  RH  010%=      5-min Rain = 0
KBY1 131952Z 03021G26KT 23/M10 A2987 RMK A01 T02341099  RH  010%=      5-min Rain = 0
KBY1 131953Z 03023KT 23/M10 A2987 RMK A01 T02341098  RH  010%=      5-min Rain = 0
KBY1 131954Z 03020G25KT 23/M10 A2987 RMK A01 T02321099  RH  010%=      5-min Rain = 0
KBY1 131955Z 03019KT 23/M10 A2987 RMK A01 T02311099  RH  010%=      5-min Rain = 0
KBY1 131956Z 03019G26KT 23/M10 A2987 RMK A01 T02301099  RH  010%=      5-min Rain = 0
KBY1 131957Z 03019G24KT 23/M10 A2987 RMK A01 T02301099  RH  010%=      5-min Rain = 0
KBY1 131958Z 02019G25KT 23/M10 A2987 RMK A01 T02291098  RH  010%=      5-min Rain = 0
KBY1 131959Z 03023KT 23/M10 A2988 RMK A01 T02291099  RH  010%=      5-min Rain = 0
KBY1 132000Z 03018KT 23/M10 A2987 RMK A01 T02281100  RH  010%=      5-min Rain = 0
KBY1 132001Z 03023G29KT 23/M10 A2988 RMK A01 T02281097  RH  011%=      5-min Rain = 0
KBY1 132002Z 03024G31KT 23/M09 A2988 RMK A01 T02281094  RH  011%=      5-min Rain = 0
KBY1 132003Z 03023G28KT 23/M09 A2988 RMK A01 T02261091  RH  011%=      5-min Rain = 0
KBY1 132004Z 03021KT 23/M09 A2988 RMK A01 T02251090  RH  011%=      5-min Rain = 0
KBY1 132005Z 02023G28KT 22/M09 A2988 RMK A01 T02241088  RH  012%=      5-min Rain = 0
KBY1 132006Z 02023G28KT 22/M09 A2988 RMK A01 T02241092  RH  011%=      5-min Rain = 0
KBY1 132007Z 03024G30KT 22/M10 A2988 RMK A01 T02231097  RH  011%=      5-min Rain = 0
KBY1 132008Z 03024G29KT 22/M10 A2988 RMK A01 T02211096  RH  011%=      5-min Rain = 0
KBY1 132009Z 03023G30KT 22/M09 A2988 RMK A01 T02191093  RH  011%=      5-min Rain = 0
KBY1 132010Z 02023G30KT 22/M09 A2988 RMK A01 T02191090  RH  012%=      5-min Rain = 0
KBY1 132011Z 01019G25KT 22/M09 A2988 RMK A01 T02191089  RH  012%=      5-min Rain = 0
KBY1 132012Z 03020G25KT 22/M09 A2988 RMK A01 T02191088  RH  012%=      5-min Rain = 0
KBY1 132013Z 03022G27KT 22/M09 A2988 RMK A01 T02201085  RH  012%=      5-min Rain = 0
KBY1 132014Z 03021G26KT 22/M08 A2988 RMK A01 T02191084  RH  012%=      5-min Rain = 0
KBY1 132015Z 03024G30KT 22/M08 A2988 RMK A01 T02171083  RH  013%=      5-min Rain = 0
KBY1 132016Z 03024G33KT 22/M08 A2988 RMK A01 T02171081  RH  013%=      5-min Rain = 0
KBY1 132017Z 03023G29KT 22/M08 A2989 RMK A01 T02171081  RH  013%=      5-min Rain = 0
KBY1 132018Z 04024G29KT 22/M08 A2989 RMK A01 T02161082  RH  013%=      5-min Rain = 0
KBY1 132019Z 04022KT 22/M08 A2989 RMK A01 T02161082  RH  013%=      5-min Rain = 0
KBY1 132020Z 03023KT 21/M08 A2989 RMK A01 T02141081  RH  013%=      5-min Rain = 0
KBY1 132021Z 03021G28KT 21/M08 A2989 RMK A01 T02141081  RH  013%=      5-min Rain = 0
KBY1 132022Z 03021G26KT 22/M08 A2989 RMK A01 T02151081  RH  013%=      5-min Rain = 0
KBY1 132023Z 03018G23KT 22/M08 A2989 RMK A01 T02151078  RH  013%=      5-min Rain = 0
KBY1 132024Z 03018KT 22/M08 A2989 RMK A01 T02151076  RH  013%=      5-min Rain = 0
KBY1 132025Z 02018G23KT 22/M07 A2989 RMK A01 T02161074  RH  014%=      5-min Rain = 0
KBY1 132026Z 03021KT 22/M07 A2989 RMK A01 T02151073  RH  014%=      5-min Rain = 0
KBY1 132027Z 03022KT 21/M07 A2989 RMK A01 T02141073  RH  014%=      5-min Rain = 0
KBY1 132028Z 03023G30KT 21/M07 A2989 RMK A01 T02121072  RH  014%=      5-min Rain = 0
KBY1 132029Z 03022KT 21/M07 A2989 RMK A01 T02101071  RH  014%=      5-min Rain = 0
KBY1 132030Z 02022G27KT 21/M07 A299 RMK A01 T02091071  RH  015%=      5-min Rain = 0
KBY1 132031Z 02019G24KT 21/M07 A2989 RMK A01 T02091071  RH  015%=      5-min Rain = 0
KBY1 132032Z 03020G25KT 21/M07 A299 RMK A01 T02091071  RH  015%=      5-min Rain = 0
KBY1 132033Z 03020G25KT 21/M07 A299 RMK A01 T02101072  RH  014%=      5-min Rain = 0
KBY1 132034Z 04019KT 21/M07 A299 RMK A01 T02091072  RH  014%=      5-min Rain = 0
KBY1 132035Z 03022KT 21/M07 A299 RMK A01 T02081071  RH  015%=      5-min Rain = 0
KBY1 132036Z 04023G28KT 21/M07 A299 RMK A01 T02061071  RH  015%=      5-min Rain = 0
KBY1 132037Z 04020G26KT 20/M07 A299 RMK A01 T02041071  RH  015%=      5-min Rain = 0
KBY1 132038Z 04017G22KT 20/M07 A299 RMK A01 T02041069  RH  015%=      5-min Rain = 0
KBY1 132039Z 03019G26KT 21/M07 A299 RMK A01 T02051070  RH  015%=      5-min Rain = 0
KBY1 132040Z 04020G27KT 21/M07 A299 RMK A01 T02051071  RH  015%=      5-min Rain = 0
KBY1 132041Z 04021KT 21/M08 A299 RMK A01 T02051075  RH  015%=      5-min Rain = 0
KBY1 132042Z 04020G25KT 20/M08 A299 RMK A01 T02031075  RH  015%=      5-min Rain = 0
KBY1 132043Z 04015G22KT 20/M07 A299 RMK A01 T02031074  RH  015%=      5-min Rain = 0
KBY1 132044Z 03021KT 20/M08 A299 RMK A01 T02031076  RH  015%=      5-min Rain = 0
KBY1 132045Z 03018G23KT 20/M08 A299 RMK A01 T02031076  RH  015%=      5-min Rain = 0
KBY1 132046Z 03022G29KT 20/M08 A299 RMK A01 T02041075  RH  014%=      5-min Rain = 0
KBY1 132047Z 03019KT 20/M08 A299 RMK A01 T02041076  RH  014%=      5-min Rain = 0
KBY1 132048Z 03018KT 20/M08 A299 RMK A01 T02041077  RH  014%=      5-min Rain = 0
KBY1 132049Z 03017KT 20/M08 A299 RMK A01 T02041078  RH  014%=      5-min Rain = 0
KBY1 132050Z 03021G26KT 21/M08 A299 RMK A01 T02051078  RH  014%=      5-min Rain = 0
KBY1 132051Z 03022G27KT 20/M08 A299 RMK A01 T02041080  RH  014%=      5-min Rain = 0
KBY1 132052Z 03018G25KT 20/M08 A299 RMK A01 T02021079  RH  014%=      5-min Rain = 0
KBY1 132053Z 04020KT 20/M08 A2991 RMK A01 T02031077  RH  014%=      5-min Rain = 0
KBY1 132054Z 04022KT 20/M08 A2991 RMK A01 T02031078  RH  014%=      5-min Rain = 0
KBY1 132055Z 03020G26KT 20/M08 A2991 RMK A01 T02021080  RH  014%=      5-min Rain = 0
KBY1 132056Z 03021KT 20/M08 A299 RMK A01 T02011080  RH  014%=      5-min Rain = 0
KBY1 132057Z 04017G22KT 20/M08 A299 RMK A01 T02011080  RH  014%=      5-min Rain = 0
KBY1 132058Z 03016G22KT 20/M08 A2991 RMK A01 T02021079  RH  014%=      5-min Rain = 0
KBY1 132059Z 03020G25KT 20/M08 A2991 RMK A01 T02031078  RH  014%=      5-min Rain = 0
KBY1 132100Z 04018KT 20/M08 A2991 RMK A01 T02021078  RH  014%=      5-min Rain = 0
KBY1 132101Z 04019KT 20/M08 A2991 RMK A01 T02031077  RH  014%=      5-min Rain = 0
KBY1 132102Z 04017KT 20/M08 A2991 RMK A01 T02031078  RH  014%=      5-min Rain = 0
KBY1 132103Z 05020G26KT 20/M08 A2991 RMK A01 T02021078  RH  014%=      5-min Rain = 0
KBY1 132104Z 04019G24KT 20/M08 A2991 RMK A01 T02011079  RH  014%=      5-min Rain = 0
KBY1 132105Z 04017KT 20/M08 A2991 RMK A01 T02011079  RH  014%=      5-min Rain = 0
KBY1 132106Z 05019G24KT 20/M08 A2991 RMK A01 T02011080  RH  014%=      5-min Rain = 0
KBY1 132107Z 05017G22KT 20/M08 A2991 RMK A01 T02011081  RH  014%=      5-min Rain = 0
KBY1 132108Z 03016KT 20/M08 A2991 RMK A01 T02011080  RH  014%=      5-min Rain = 0
KBY1 132109Z 04018KT 20/M08 A2991 RMK A01 T02011079  RH  014%=      5-min Rain = 0
KBY1 132110Z 04019G24KT 20/M08 A2991 RMK A01 T02011080  RH  014%=      5-min Rain = 0
KBY1 132111Z 03022KT 20/M08 A2991 RMK A01 T02011082  RH  014%=      5-min Rain = 0
KBY1 132112Z 03022KT 20/M08 A2991 RMK A01 T02011083  RH  014%=      5-min Rain = 0
KBY1 132113Z 05020G26KT 20/M09 A2991 RMK A01 T02011086  RH  014%=      5-min Rain = 0
KBY1 132114Z 04019G24KT 20/M09 A2991 RMK A01 T02001087  RH  014%=      5-min Rain = 0
KBY1 132115Z 03020G25KT 20/M09 A2991 RMK A01 T02001086  RH  014%=      5-min Rain = 0
KBY1 132116Z 03015KT 20/M08 A2991 RMK A01 T02001084  RH  014%=      5-min Rain = 0
KBY1 132117Z 04014KT 20/M08 A2991 RMK A01 T02021082  RH  014%=      5-min Rain = 0
KBY1 132118Z 05009KT 20/M08 A2991 RMK A01 T02031078  RH  014%=      5-min Rain = 0
KBY1 132119Z 04014G20KT 21/M08 A2991 RMK A01 T02051075  RH  014%=      5-min Rain = 0
KBY1 132120Z 05014G19KT 21/M07 A2991 RMK A01 T02061074  RH  014%=      5-min Rain = 0
KBY1 132121Z 05018KT 21/M07 A2991 RMK A01 T02061074  RH  015%=      5-min Rain = 0
KBY1 132122Z 05016KT 21/M08 A2991 RMK A01 T02051075  RH  014%=      5-min Rain = 0
KBY1 132123Z 05015G22KT 20/M08 A2992 RMK A01 T02031076  RH  015%=      5-min Rain = 0
KBY1 132124Z 05016KT 20/M08 A2992 RMK A01 T02031076  RH  015%=      5-min Rain = 0
KBY1 132125Z 05017G22KT 20/M08 A2991 RMK A01 T02031078  RH  014%=      5-min Rain = 0
KBY1 132126Z 06019G24KT 20/M08 A2992 RMK A01 T02021079  RH  014%=      5-min Rain = 0
KBY1 132127Z 05015KT 20/M08 A2992 RMK A01 T02021079  RH  014%=      5-min Rain = 0
KBY1 132128Z 05017G22KT 20/M08 A2992 RMK A01 T02021078  RH  014%=      5-min Rain = 0
KBY1 132129Z 04012KT 20/M08 A2992 RMK A01 T02011079  RH  014%=      5-min Rain = 0
KBY1 132130Z 04015G21KT 20/M08 A2992 RMK A01 T02011079  RH  014%=      5-min Rain = 0
KBY1 132131Z 06019G27KT 20/M08 A2992 RMK A01 T02011080  RH  014%=      5-min Rain = 0
KBY1 132132Z 05016G23KT 20/M08 A2992 RMK A01 T02021081  RH  014%=      5-min Rain = 0
KBY1 132133Z 05016KT 20/M08 A2992 RMK A01 T02011081  RH  014%=      5-min Rain = 0
KBY1 132134Z 05015G20KT 20/M08 A2992 RMK A01 T02011081  RH  014%=      5-min Rain = 0
KBY1 132135Z 06015KT 20/M08 A2992 RMK A01 T02011080  RH  014%=      5-min Rain = 0
KBY1 132136Z 05011KT 20/M08 A2992 RMK A01 T02021079  RH  014%=      5-min Rain = 0
KBY1 132137Z 05015G21KT 20/M08 A2992 RMK A01 T02031081  RH  014%=      5-min Rain = 0
KBY1 132138Z 06016KT 20/M09 A2992 RMK A01 T02031085  RH  013%=      5-min Rain = 0
KBY1 132139Z 05019KT 20/M09 A2992 RMK A01 T02021086  RH  013%=      5-min Rain = 0
KBY1 132140Z 05017KT 20/M09 A2992 RMK A01 T02021087  RH  013%=      5-min Rain = 0
KBY1 132141Z 05015KT 20/M09 A2992 RMK A01 T02011087  RH  014%=      5-min Rain = 0
KBY1 132142Z 05015KT 20/M09 A2992 RMK A01 T02011086  RH  014%=      5-min Rain = 0
KBY1 132143Z 05014KT 20/M09 A2992 RMK A01 T02001087  RH  014%=      5-min Rain = 0
KBY1 132144Z 05012G17KT 20/M09 A2992 RMK A01 T01991086  RH  014%=      5-min Rain = 0
KBY1 132145Z 05017KT 20/M09 A2992 RMK A01 T01981086  RH  014%=      5-min Rain = 0
KBY1 132146Z 04015G20KT 20/M09 A2992 RMK A01 T01991089  RH  013%=      5-min Rain = 0
KBY1 132147Z 03014KT 20/M09 A2992 RMK A01 T01981091  RH  013%=      5-min Rain = 0
KBY1 132148Z 04014KT 20/M09 A2992 RMK A01 T01981090  RH  013%=      5-min Rain = 0
KBY1 132149Z 04015KT 20/M09 A2992 RMK A01 T01981092  RH  013%=      5-min Rain = 0
KBY1 132150Z 04013KT 20/M09 A2992 RMK A01 T01981093  RH  013%=      5-min Rain = 0
KBY1 132151Z 04014KT 20/M09 A2992 RMK A01 T01981092  RH  013%=      5-min Rain = 0
KBY1 132152Z 04013KT 20/M09 A2992 RMK A01 T01981092  RH  013%=      5-min Rain = 0
KBY1 132153Z 04013KT 20/M09 A2992 RMK A01 T01971092  RH  013%=      5-min Rain = 0
KBY1 132154Z 04013KT 20/M09 A2992 RMK A01 T01971092  RH  013%=      5-min Rain = 0
KBY1 132155Z 04016KT 20/M09 A2993 RMK A01 T01971092  RH  013%=      5-min Rain = 0
KBY1 132156Z 05016G21KT 20/M09 A2992 RMK A01 T01971092  RH  013%=      5-min Rain = 0
KBY1 132157Z 05016G21KT 20/M09 A2992 RMK A01 T01981092  RH  013%=      5-min Rain = 0
KBY1 132158Z 05013G18KT 20/M09 A2992 RMK A01 T01991091  RH  013%=      5-min Rain = 0
KBY1 132159Z 04012G18KT 20/M09 A2992 RMK A01 T01991091  RH  013%=      5-min Rain = 0
KBY1 132200Z 04015KT 20/M09 A2992 RMK A01 T01991091  RH  013%=      5-min Rain = 0
KBY1 132201Z 04013KT 20/M09 A2992 RMK A01 T02001091  RH  013%=      5-min Rain = 0
KBY1 132202Z 04013KT 20/M09 A2992 RMK A01 T02001090  RH  013%=      5-min Rain = 0
KBY1 132203Z 04013KT 20/M09 A2992 RMK A01 T02011090  RH  013%=      5-min Rain = 0
KBY1 132204Z 05013KT 20/M09 A2993 RMK A01 T02011089  RH  013%=      5-min Rain = 0
KBY1 132205Z 04012KT 20/M09 A2992 RMK A01 T02031087  RH  013%=      5-min Rain = 0
KBY1 132206Z 03015KT 20/M09 A2992 RMK A01 T02031087  RH  013%=      5-min Rain = 0
KBY1 132207Z 04016KT 20/M09 A2992 RMK A01 T02031087  RH  013%=      5-min Rain = 0
KBY1 132208Z 03011KT 20/M09 A2992 RMK A01 T02031086  RH  013%=      5-min Rain = 0
KBY1 132209Z 04013KT 20/M09 A2992 RMK A01 T02031085  RH  013%=      5-min Rain = 0
KBY1 132210Z 05010KT 20/M09 A2992 RMK A01 T02031085  RH  014%=      5-min Rain = 0
KBY1 132211Z 05013G18KT 20/M08 A2992 RMK A01 T02041084  RH  014%=      5-min Rain = 0
KBY1 132212Z 04013G19KT 20/M08 A2993 RMK A01 T02041083  RH  014%=      5-min Rain = 0
KBY1 132213Z 05013KT 20/M08 A2993 RMK A01 T02041084  RH  014%=      5-min Rain = 0
KBY1 132214Z 05015KT 20/M08 A2993 RMK A01 T02041084  RH  014%=      5-min Rain = 0
KBY1 132215Z 05012G17KT 20/M08 A2993 RMK A01 T02041083  RH  014%=      5-min Rain = 0
KBY1 132216Z 05013KT 21/M08 A2993 RMK A01 T02051083  RH  014%=      5-min Rain = 0
KBY1 132217Z 04012KT 21/M08 A2993 RMK A01 T02051083  RH  014%=      5-min Rain = 0
KBY1 132218Z 03015KT 21/M08 A2993 RMK A01 T02051083  RH  014%=      5-min Rain = 0
KBY1 132219Z 04018KT 21/M08 A2993 RMK A01 T02051082  RH  014%=      5-min Rain = 0
KBY1 132220Z 04016KT 20/M08 A2993 RMK A01 T02041080  RH  014%=      5-min Rain = 0
KBY1 132221Z 04016KT 20/M08 A2993 RMK A01 T02041079  RH  014%=      5-min Rain = 0
KBY1 132222Z 05017KT 20/M08 A2993 RMK A01 T02041078  RH  014%=      5-min Rain = 0
KBY1 132223Z 05014KT 20/M08 A2993 RMK A01 T02041079  RH  014%=      5-min Rain = 0
KBY1 132224Z 06012KT 20/M08 A2993 RMK A01 T02041079  RH  014%=      5-min Rain = 0
KBY1 132225Z 04011KT 20/M08 A2993 RMK A01 T02031078  RH  014%=      5-min Rain = 0
KBY1 132226Z 04013G18KT 20/M08 A2993 RMK A01 T02031078  RH  014%=      5-min Rain = 0
KBY1 132227Z 05010KT 20/M08 A2993 RMK A01 T02031078  RH  014%=      5-min Rain = 0
KBY1 132228Z 05009KT 20/M08 A2993 RMK A01 T02031077  RH  014%=      5-min Rain = 0
KBY1 132229Z 06011KT 20/M08 A2993 RMK A01 T02041075  RH  015%=      5-min Rain = 0
KBY1 132230Z 05015KT 20/M08 A2993 RMK A01 T02041075  RH  015%=      5-min Rain = 0
KBY1 132231Z 05013G18KT 20/M08 A2993 RMK A01 T02031075  RH  015%=      5-min Rain = 0
KBY1 132232Z 05014KT 20/M08 A2993 RMK A01 T02031075  RH  015%=      5-min Rain = 0
KBY1 132233Z 05014G21KT 20/M08 A2993 RMK A01 T02021076  RH  015%=      5-min Rain = 0
KBY1 132234Z 04014G20KT 20/M08 A2993 RMK A01 T02021075  RH  015%=      5-min Rain = 0
KBY1 132235Z 05015G20KT 20/M07 A2993 RMK A01 T02021074  RH  015%=      5-min Rain = 0
KBY1 132236Z 05012KT 20/M07 A2993 RMK A01 T02021073  RH  015%=      5-min Rain = 0
KBY1 132237Z 05012KT 20/M07 A2993 RMK A01 T02021073  RH  015%=      5-min Rain = 0
KBY1 132238Z 05015KT 20/M07 A2993 RMK A01 T02021073  RH  015%=      5-min Rain = 0
KBY1 132239Z 05013KT 20/M07 A2993 RMK A01 T02021072  RH  015%=      5-min Rain = 0
KBY1 132240Z 05012G17KT 20/M07 A2993 RMK A01 T02011072  RH  015%=      5-min Rain = 0
KBY1 132241Z 05011KT 20/M07 A2993 RMK A01 T02011071  RH  015%=      5-min Rain = 0
KBY1 132242Z 05010KT 20/M07 A2993 RMK A01 T02011070  RH  015%=      5-min Rain = 0
KBY1 132243Z 06015KT 20/M07 A2994 RMK A01 T02011069  RH  015%=      5-min Rain = 0
KBY1 132244Z 05015KT 20/M07 A2994 RMK A01 T02001069  RH  016%=      5-min Rain = 0
KBY1 132245Z 05014KT 20/M07 A2993 RMK A01 T01991069  RH  016%=      5-min Rain = 0
KBY1 132246Z 05014G19KT 20/M07 A2994 RMK A01 T01991069  RH  016%=      5-min Rain = 0
KBY1 132247Z 04012G17KT 20/M07 A2994 RMK A01 T01981068  RH  016%=      5-min Rain = 0
KBY1 132248Z 05012KT 20/M07 A2994 RMK A01 T01981069  RH  016%=      5-min Rain = 0
KBY1 132249Z 04015G24KT 20/M07 A2994 RMK A01 T01981068  RH  016%=      5-min Rain = 0
KBY1 132250Z 04016KT 20/M07 A2994 RMK A01 T01971070  RH  016%=      5-min Rain = 0
KBY1 132251Z 05012KT 20/M07 A2994 RMK A01 T01981069  RH  016%=      5-min Rain = 0
KBY1 132252Z 06016G22KT 20/M07 A2994 RMK A01 T01971069  RH  016%=      5-min Rain = 0
KBY1 132253Z 07012KT 20/M07 A2994 RMK A01 T01961070  RH  016%=      5-min Rain = 0
KBY1 132254Z 10007KT 20/M07 A2994 RMK A01 T01951070  RH  016%=      5-min Rain = 0
KBY1 132255Z 08009KT 19/M07 A2994 RMK A01 T01931071  RH  016%=      5-min Rain = 0
KBY1 132256Z 07008KT 19/M07 A2994 RMK A01 T01921070  RH  016%=      5-min Rain = 0
KBY1 132257Z 08008KT 19/M07 A2994 RMK A01 T01911070  RH  016%=      5-min Rain = 0
KBY1 132258Z 07007KT 19/M07 A2994 RMK A01 T01901071  RH  016%=      5-min Rain = 0
KBY1 132259Z 06007KT 19/M07 A2994 RMK A01 T01901070  RH  016%=      5-min Rain = 0
KBY1 132300Z 06007KT 19/M07 A2994 RMK A01 T01901071  RH  016%=      5-min Rain = 0
KBY1 132301Z 05009KT 19/M07 A2994 RMK A01 T01891070  RH  017%=      5-min Rain = 0
KBY1 132302Z 05011G18KT 19/M07 A2994 RMK A01 T01901069  RH  017%=      5-min Rain = 0
KBY1 132303Z 04011KT 19/M07 A2995 RMK A01 T01901067  RH  017%=      5-min Rain = 0
KBY1 132304Z 05011KT 19/M07 A2995 RMK A01 T01911066  RH  017%=      5-min Rain = 0
KBY1 132305Z 04011G17KT 19/M07 A2995 RMK A01 T01921066  RH  017%=      5-min Rain = 0
KBY1 132306Z 04017KT 19/M07 A2995 RMK A01 T01921066  RH  017%=      5-min Rain = 0
KBY1 132307Z 04014G19KT 19/M07 A2995 RMK A01 T01921066  RH  017%=      5-min Rain = 0
KBY1 132308Z 04013KT 19/M07 A2995 RMK A01 T01921065  RH  017%=      5-min Rain = 0
KBY1 132309Z 04014KT 19/M07 A2995 RMK A01 T01911065  RH  017%=      5-min Rain = 0
KBY1 132310Z 05011KT 19/M07 A2995 RMK A01 T01901065  RH  017%=      5-min Rain = 0
KBY1 132311Z 04012KT 19/M06 A2995 RMK A01 T01891064  RH  017%=      5-min Rain = 0
KBY1 132312Z 04012G17KT 19/M06 A2995 RMK A01 T01881064  RH  017%=      5-min Rain = 0
KBY1 132313Z 05013KT 19/M06 A2995 RMK A01 T01881064  RH  017%=      5-min Rain = 0
KBY1 132314Z 05012KT 19/M06 A2995 RMK A01 T01881064  RH  017%=      5-min Rain = 0
KBY1 132315Z 04009KT 19/M06 A2995 RMK A01 T01871064  RH  018%=      5-min Rain = 0
KBY1 132316Z 04010KT 19/M06 A2995 RMK A01 T01861064  RH  018%=      5-min Rain = 0
KBY1 132317Z 04009KT 19/M06 A2995 RMK A01 T01851064  RH  018%=      5-min Rain = 0
KBY1 132318Z 05010KT 19/M06 A2995 RMK A01 T01851064  RH  018%=      5-min Rain = 0
KBY1 132319Z 05013KT 18/M06 A2995 RMK A01 T01831064  RH  018%=      5-min Rain = 0
KBY1 132320Z 04010KT 18/M06 A2995 RMK A01 T01831064  RH  018%=      5-min Rain = 0
KBY1 132321Z 05010KT 18/M06 A2995 RMK A01 T01831064  RH  018%=      5-min Rain = 0
KBY1 132322Z 05010KT 18/M07 A2995 RMK A01 T01821065  RH  018%=      5-min Rain = 0
KBY1 132323Z 05011KT 18/M07 A2995 RMK A01 T01821065  RH  018%=      5-min Rain = 0
KBY1 132324Z 05009KT 18/M07 A2995 RMK A01 T01811065  RH  018%=      5-min Rain = 0
KBY1 132325Z 05008KT 18/M07 A2996 RMK A01 T01801065  RH  018%=      5-min Rain = 0
KBY1 132326Z 06007KT 18/M07 A2996 RMK A01 T01791065  RH  018%=      5-min Rain = 0
KBY1 132327Z 05009KT 18/M07 A2996 RMK A01 T01781065  RH  019%=      5-min Rain = 0
KBY1 132328Z 05007KT 18/M07 A2996 RMK A01 T01771065  RH  019%=      5-min Rain = 0
KBY1 132329Z 05008KT 18/M07 A2996 RMK A01 T01761065  RH  019%=      5-min Rain = 0
KBY1 132330Z 06007KT 18/M07 A2996 RMK A01 T01751065  RH  019%=      5-min Rain = 0
KBY1 132331Z 05008KT 17/M07 A2996 RMK A01 T01741065  RH  019%=      5-min Rain = 0
KBY1 132332Z 07007KT 17/M07 A2996 RMK A01 T01741065  RH  019%=      5-min Rain = 0
KBY1 132333Z 07006KT 17/M07 A2996 RMK A01 T01721065  RH  019%=      5-min Rain = 0
KBY1 132334Z 07008KT 17/M07 A2996 RMK A01 T01711065  RH  019%=      5-min Rain = 0
KBY1 132335Z 07007KT 17/M07 A2996 RMK A01 T01701065  RH  020%=      5-min Rain = 0
KBY1 132336Z 07007KT 17/M07 A2996 RMK A01 T01691065  RH  020%=      5-min Rain = 0
KBY1 132337Z 07007KT 17/M07 A2996 RMK A01 T01681065  RH  020%=      5-min Rain = 0
KBY1 132338Z 07007KT 17/M07 A2996 RMK A01 T01671065  RH  020%=      5-min Rain = 0
KBY1 132339Z 07006KT 17/M07 A2996 RMK A01 T01661065  RH  020%=      5-min Rain = 0
KBY1 132340Z 07006KT 17/M07 A2996 RMK A01 T01651065  RH  020%=      5-min Rain = 0
KBY1 132341Z 07006KT 17/M07 A2996 RMK A01 T01651065  RH  020%=      5-min Rain = 0
KBY1 132342Z 07006KT 16/M07 A2996 RMK A01 T01641066  RH  020%=      5-min Rain = 0
KBY1 132343Z 07004KT 16/M07 A2996 RMK A01 T01621066  RH  020%=      5-min Rain = 0
KBY1 132344Z 07004KT 16/M07 A2996 RMK A01 T01611066  RH  020%=      5-min Rain = 0
KBY1 132345Z 06004KT 16/M07 A2997 RMK A01 T01601066  RH  021%=      5-min Rain = 0
KBY1 132346Z 07004KT 16/M07 A2997 RMK A01 T01591066  RH  021%=      5-min Rain = 0
KBY1 132347Z 06003KT 16/M07 A2997 RMK A01 T01591066  RH  021%=      5-min Rain = 0
KBY1 132348Z 06004KT 16/M07 A2997 RMK A01 T01581066  RH  021%=      5-min Rain = 0
KBY1 132349Z 06006KT 16/M07 A2997 RMK A01 T01571066  RH  021%=      5-min Rain = 0
KBY1 132350Z 06005KT 16/M07 A2997 RMK A01 T01561066  RH  021%=      5-min Rain = 0
KBY1 132351Z 06004KT 15/M07 A2997 RMK A01 T01541066  RH  021%=      5-min Rain = 0
KBY1 132352Z 05004KT 15/M07 A2997 RMK A01 T01531066  RH  022%=      5-min Rain = 0
KBY1 132353Z 05004KT 15/M07 A2997 RMK A01 T01531066  RH  021%=      5-min Rain = 0
KBY1 132354Z 05004KT 15/M07 A2997 RMK A01 T01531067  RH  021%=      5-min Rain = 0
KBY1 132355Z 05005KT 15/M07 A2997 RMK A01 T01531066  RH  022%=      5-min Rain = 0
KBY1 132356Z 05005KT 15/M07 A2997 RMK A01 T01531066  RH  022%=      5-min Rain = 0
KBY1 132357Z 06005KT 15/M07 A2997 RMK A01 T01521066  RH  022%=      5-min Rain = 0
KBY1 132358Z 06004KT 15/M07 A2997 RMK A01 T01521066  RH  022%=      5-min Rain = 0
KBY1 132359Z 06004KT 15/M07 A2997 RMK A01 T01501067  RH  022%=      5-min Rain = 0
KBY1 140000Z 06004KT 15/M07 A2997 RMK A01 T01491067  RH  022%=      5-min Rain = 0
KBY1 140001Z 07004KT 15/M07 A2997 RMK A01 T01471067  RH  022%=      5-min Rain = 0
KBY1 140002Z 06004KT 15/M07 A2997 RMK A01 T01461067  RH  022%=      5-min Rain = 0
KBY1 140003Z 06004KT 15/M07 A2998 RMK A01 T01451067  RH  022%=      5-min Rain = 0
KBY1 140004Z 05004KT 14/M07 A2998 RMK A01 T01441067  RH  022%=      5-min Rain = 0
KBY1 140005Z 05004KT 14/M07 A2998 RMK A01 T01441067  RH  023%=      5-min Rain = 0
KBY1 140006Z 06004KT 14/M07 A2998 RMK A01 T01441067  RH  023%=      5-min Rain = 0
KBY1 140007Z 06005KT 15/M07 A2998 RMK A01 T01451067  RH  023%=      5-min Rain = 0
KBY1 140008Z 06005KT 15/M07 A2998 RMK A01 T01451067  RH  023%=      5-min Rain = 0
KBY1 140009Z 06005KT 14/M07 A2998 RMK A01 T01431067  RH  023%=      5-min Rain = 0
KBY1 140010Z 06005KT 14/M07 A2998 RMK A01 T01421067  RH  023%=      5-min Rain = 0
KBY1 140011Z 05005KT 14/M07 A2998 RMK A01 T01411066  RH  023%=      5-min Rain = 0
KBY1 140012Z 05005KT 14/M07 A2998 RMK A01 T01411066  RH  023%=      5-min Rain = 0
KBY1 140013Z 05006KT 14/M07 A2998 RMK A01 T01411067  RH  023%=      5-min Rain = 0
KBY1 140014Z 04006KT 14/M07 A2999 RMK A01 T01421066  RH  023%=      5-min Rain = 0
KBY1 140015Z 05006KT 14/M07 A2999 RMK A01 T01421066  RH  023%=      5-min Rain = 0
KBY1 140016Z 05005KT 14/M07 A2999 RMK A01 T01421066  RH  023%=      5-min Rain = 0
KBY1 140017Z 05006KT 14/M07 A2999 RMK A01 T01421066  RH  023%=      5-min Rain = 0
KBY1 140018Z 05006KT 14/M07 A2999 RMK A01 T01431065  RH  023%=      5-min Rain = 0
KBY1 140019Z 05005KT 14/M07 A2999 RMK A01 T01431066  RH  023%=      5-min Rain = 0
KBY1 140020Z 05007KT 14/M07 A2999 RMK A01 T01411067  RH  023%=      5-min Rain = 0
KBY1 140021Z 05006KT 14/M07 A2999 RMK A01 T01401066  RH  023%=      5-min Rain = 0
KBY1 140022Z 06006KT 14/M07 A2999 RMK A01 T01391066  RH  023%=      5-min Rain = 0
KBY1 140023Z 05007KT 14/M07 A2999 RMK A01 T01381067  RH  024%=      5-min Rain = 0
KBY1 140024Z 05006KT 14/M07 A2999 RMK A01 T01371066  RH  024%=      5-min Rain = 0
KBY1 140025Z 05007KT 14/M07 A2999 RMK A01 T01361067  RH  024%=      5-min Rain = 0
KBY1 140026Z 05006KT 14/M07 A2999 RMK A01 T01361066  RH  024%=      5-min Rain = 0
KBY1 140027Z 05006KT 14/M07 A2999 RMK A01 T01351067  RH  024%=      5-min Rain = 0
KBY1 140028Z 05006KT 13/M07 A2999 RMK A01 T01341067  RH  024%=      5-min Rain = 0
KBY1 140029Z 05006KT 14/M07 A2999 RMK A01 T01351066  RH  024%=      5-min Rain = 0
KBY1 140030Z 05006KT 14/M07 A2999 RMK A01 T01351066  RH  024%=      5-min Rain = 0
KBY1 140031Z 05008KT 13/M07 A30 RMK A01 T01341067  RH  024%=      5-min Rain = 0
KBY1 140032Z 05007KT 13/M07 A30 RMK A01 T01341067  RH  024%=      5-min Rain = 0
KBY1 140033Z 05007KT 13/M07 A30 RMK A01 T01341067  RH  024%=      5-min Rain = 0
KBY1 140034Z 06008KT 13/M07 A30 RMK A01 T01341067  RH  024%=      5-min Rain = 0
KBY1 140035Z 05008KT 13/M07 A30 RMK A01 T01341067  RH  024%=      5-min Rain = 0
KBY1 140036Z 07007KT 13/M07 A30 RMK A01 T01331067  RH  024%=      5-min Rain = 0
KBY1 140037Z 06006KT 13/M07 A30 RMK A01 T01321067  RH  025%=      5-min Rain = 0
KBY1 140038Z 07006KT 13/M07 A30 RMK A01 T01301067  RH  025%=      5-min Rain = 0
KBY1 140039Z 07006KT 13/M07 A30 RMK A01 T01291066  RH  025%=      5-min Rain = 0
KBY1 140040Z 08006KT 13/M07 A30 RMK A01 T01271066  RH  025%=      5-min Rain = 0
KBY1 140041Z 07006KT 13/M07 A30 RMK A01 T01251066  RH  026%=      5-min Rain = 0
KBY1 140042Z 06006KT 12/M07 A30 RMK A01 T01241067  RH  026%=      5-min Rain = 0
KBY1 140043Z 06006KT 12/M07 A3001 RMK A01 T01241067  RH  026%=      5-min Rain = 0
KBY1 140044Z 05007KT 12/M07 A3001 RMK A01 T01241067  RH  026%=      5-min Rain = 0
KBY1 140045Z 05006KT 12/M07 A3001 RMK A01 T01231067  RH  026%=      5-min Rain = 0
KBY1 140046Z 05007KT 12/M07 A3001 RMK A01 T01231066  RH  026%=      5-min Rain = 0
KBY1 140047Z 05007KT 12/M07 A3001 RMK A01 T01231066  RH  026%=      5-min Rain = 0
KBY1 140048Z 05007KT 12/M07 A3001 RMK A01 T01231066  RH  026%=      5-min Rain = 0
KBY1 140049Z 05006KT 12/M07 A3001 RMK A01 T01241067  RH  026%=      5-min Rain = 0
KBY1 140050Z 05006KT 12/M07 A3001 RMK A01 T01241067  RH  026%=      5-min Rain = 0
KBY1 140051Z 05007KT 12/M07 A3001 RMK A01 T01231067  RH  026%=      5-min Rain = 0
KBY1 140052Z 05007KT 12/M07 A3001 RMK A01 T01211067  RH  026%=      5-min Rain = 0
KBY1 140053Z 06007KT 12/M07 A3001 RMK A01 T01211067  RH  026%=      5-min Rain = 0
KBY1 140054Z 06007KT 12/M07 A3001 RMK A01 T01191067  RH  027%=      5-min Rain = 0
KBY1 140055Z 06006KT 12/M07 A3002 RMK A01 T01191067  RH  027%=      5-min Rain = 0
KBY1 140056Z 06006KT 12/M07 A3002 RMK A01 T01181067  RH  027%=      5-min Rain = 0
KBY1 140057Z 06006KT 12/M07 A3002 RMK A01 T01161067  RH  027%=      5-min Rain = 0
KBY1 140058Z 05007KT 12/M07 A3002 RMK A01 T01151067  RH  027%=      5-min Rain = 0
KBY1 140059Z 05007KT 11/M07 A3002 RMK A01 T01141067  RH  027%=      5-min Rain = 0
KBY1 140100Z 05008KT 11/M07 A3002 RMK A01 T01141067  RH  027%=      5-min Rain = 0
KBY1 140101Z 05007KT 12/M07 A3002 RMK A01 T01151067  RH  027%=      5-min Rain = 0
KBY1 140102Z 05008KT 12/M07 A3002 RMK A01 T01161066  RH  027%=      5-min Rain = 0
KBY1 140103Z 05008KT 12/M07 A3002 RMK A01 T01181066  RH  027%=      5-min Rain = 0
KBY1 140104Z 05009KT 12/M07 A3002 RMK A01 T01181067  RH  027%=      5-min Rain = 0
KBY1 140105Z 06009KT 12/M07 A3002 RMK A01 T01191067  RH  027%=      5-min Rain = 0
KBY1 140106Z 06009KT 12/M07 A3002 RMK A01 T01201067  RH  026%=      5-min Rain = 0
KBY1 140107Z 05007KT 12/M07 A3002 RMK A01 T01201067  RH  027%=      5-min Rain = 0
KBY1 140108Z 05009KT 12/M07 A3003 RMK A01 T01181067  RH  027%=      5-min Rain = 0
KBY1 140109Z 05007KT 12/M07 A3003 RMK A01 T01181067  RH  027%=      5-min Rain = 0
KBY1 140110Z 05009G14KT 12/M07 A3003 RMK A01 T01181067  RH  027%=      5-min Rain = 0
KBY1 140111Z 05008KT 12/M07 A3003 RMK A01 T01181067  RH  027%=      5-min Rain = 0
KBY1 140112Z 05008KT 12/M07 A3003 RMK A01 T01181068  RH  027%=      5-min Rain = 0
KBY1 140113Z 05009KT 12/M07 A3003 RMK A01 T01171067  RH  027%=      5-min Rain = 0
KBY1 140114Z 05008KT 12/M07 A3003 RMK A01 T01161067  RH  027%=      5-min Rain = 0
KBY1 140115Z 05009KT 12/M07 A3003 RMK A01 T01161067  RH  027%=      5-min Rain = 0
KBY1 140116Z 06008KT 12/M07 A3003 RMK A01 T01161067  RH  027%=      5-min Rain = 0
KBY1 140117Z 06008KT 12/M07 A3003 RMK A01 T01161067  RH  027%=      5-min Rain = 0
KBY1 140118Z 06007KT 12/M07 A3004 RMK A01 T01161067  RH  027%=      5-min Rain = 0
KBY1 140119Z 06008KT 12/M07 A3004 RMK A01 T01151067  RH  027%=      5-min Rain = 0
KBY1 140120Z 06007KT 12/M07 A3004 RMK A01 T01151067  RH  027%=      5-min Rain = 0
KBY1 140121Z 06008KT 11/M07 A3004 RMK A01 T01141067  RH  027%=      5-min Rain = 0
KBY1 140122Z 06007KT 12/M07 A3004 RMK A01 T01151067  RH  027%=      5-min Rain = 0
KBY1 140123Z 06007KT 11/M07 A3004 RMK A01 T01141067  RH  028%=      5-min Rain = 0
KBY1 140124Z 05009KT 11/M07 A3004 RMK A01 T01141066  RH  028%=      5-min Rain = 0
KBY1 140125Z 06008KT 11/M07 A3004 RMK A01 T01141066  RH  028%=      5-min Rain = 0
KBY1 140126Z 05007KT 11/M07 A3004 RMK A01 T01141066  RH  028%=      5-min Rain = 0
KBY1 140127Z 05008KT 11/M07 A3004 RMK A01 T01141066  RH  028%=      5-min Rain = 0
KBY1 140128Z 05007KT 11/M07 A3004 RMK A01 T01131066  RH  028%=      5-min Rain = 0
KBY1 140129Z 05006KT 11/M07 A3004 RMK A01 T01131066  RH  028%=      5-min Rain = 0
KBY1 140130Z 05008KT 11/M07 A3004 RMK A01 T01131066  RH  028%=      5-min Rain = 0
KBY1 140131Z 05006KT 11/M07 A3005 RMK A01 T01121066  RH  028%=      5-min Rain = 0
KBY1 140132Z 05008KT 11/M07 A3005 RMK A01 T01111065  RH  028%=      5-min Rain = 0
KBY1 140133Z 05010KT 11/M06 A3005 RMK A01 T01111064  RH  029%=      5-min Rain = 0
KBY1 140134Z 05008KT 11/M06 A3005 RMK A01 T01131063  RH  028%=      5-min Rain = 0
KBY1 140135Z 06011KT 11/M06 A3005 RMK A01 T01141063  RH  028%=      5-min Rain = 0
KBY1 140136Z 05012KT 11/M06 A3005 RMK A01 T01141063  RH  029%=      5-min Rain = 0
KBY1 140137Z 05012KT 11/M06 A3005 RMK A01 T01141062  RH  029%=      5-min Rain = 0
KBY1 140138Z 05011KT 11/M06 A3005 RMK A01 T01141061  RH  029%=      5-min Rain = 0
KBY1 140139Z 05009KT 12/M06 A3005 RMK A01 T01151061  RH  029%=      5-min Rain = 0
KBY1 140140Z 05010KT 12/M06 A3005 RMK A01 T01151061  RH  029%=      5-min Rain = 0
KBY1 140141Z 05012KT 11/M06 A3005 RMK A01 T01141060  RH  029%=      5-min Rain = 0
KBY1 140142Z 05013KT 11/M06 A3006 RMK A01 T01141060  RH  029%=      5-min Rain = 0
KBY1 140143Z 05011KT 12/M06 A3006 RMK A01 T01151059  RH  029%=      5-min Rain = 0
KBY1 140144Z 05014KT 12/M06 A3006 RMK A01 T01161059  RH  029%=      5-min Rain = 0
KBY1 140145Z 05012G17KT 12/M06 A3006 RMK A01 T01161058  RH  029%=      5-min Rain = 0
KBY1 140146Z 06012KT 12/M06 A3006 RMK A01 T01161058  RH  029%=      5-min Rain = 0
KBY1 140147Z 05013KT 12/M06 A3006 RMK A01 T01151058  RH  029%=      5-min Rain = 0
KBY1 140148Z 05011KT 12/M06 A3006 RMK A01 T01151058  RH  029%=      5-min Rain = 0
KBY1 140149Z 05013G18KT 12/M06 A3006 RMK A01 T01151058  RH  029%=      5-min Rain = 0
KBY1 140150Z 05011KT 12/M06 A3006 RMK A01 T01151058  RH  029%=      5-min Rain = 0
KBY1 140151Z 05011KT 12/M06 A3006 RMK A01 T01151058  RH  029%=      5-min Rain = 0
KBY1 140152Z 05012G17KT 12/M06 A3006 RMK A01 T01151058  RH  029%=      5-min Rain = 0
KBY1 140153Z 05012KT 11/M06 A3007 RMK A01 T01131058  RH  030%=      5-min Rain = 0
KBY1 140154Z 05010KT 11/M06 A3007 RMK A01 T01131058  RH  030%=      5-min Rain = 0
KBY1 140155Z 05011KT 11/M06 A3007 RMK A01 T01121058  RH  030%=      5-min Rain = 0
KBY1 140156Z 05011KT 11/M06 A3007 RMK A01 T01111058  RH  030%=      5-min Rain = 0
KBY1 140157Z 05012KT 11/M06 A3007 RMK A01 T01111058  RH  030%=      5-min Rain = 0
KBY1 140158Z 05010KT 11/M06 A3007 RMK A01 T01121058  RH  030%=      5-min Rain = 0
KBY1 140159Z 05010KT 11/M06 A3007 RMK A01 T01121057  RH  030%=      5-min Rain = 0
KBY1 140200Z 05014KT 11/M06 A3007 RMK A01 T01111058  RH  030%=      5-min Rain = 0
KBY1 140201Z 05012KT 11/M06 A3007 RMK A01 T01111058  RH  030%=      5-min Rain = 0
KBY1 140202Z 05010KT 11/M06 A3007 RMK A01 T01121057  RH  030%=      5-min Rain = 0
KBY1 140203Z 05010KT 11/M06 A3007 RMK A01 T01101058  RH  030%=      5-min Rain = 0
KBY1 140204Z 05011KT 11/M06 A3007 RMK A01 T01101058  RH  030%=      5-min Rain = 0
KBY1 140205Z 05011KT 11/M06 A3008 RMK A01 T01091058  RH  030%=      5-min Rain = 0
KBY1 140206Z 05010KT 11/M06 A3008 RMK A01 T01091057  RH  031%=      5-min Rain = 0
KBY1 140207Z 05009KT 11/M06 A3008 RMK A01 T01091057  RH  031%=      5-min Rain = 0
KBY1 140208Z 05010KT 11/M06 A3008 RMK A01 T01091057  RH  031%=      5-min Rain = 0
KBY1 140209Z 05010KT 11/M06 A3008 RMK A01 T01081057  RH  031%=      5-min Rain = 0
KBY1 140210Z 05011KT 11/M06 A3008 RMK A01 T01081057  RH  031%=      5-min Rain = 0
KBY1 140211Z 05010KT 11/M06 A3008 RMK A01 T01081057  RH  031%=      5-min Rain = 0
KBY1 140212Z 04009KT 11/M06 A3008 RMK A01 T01071057  RH  031%=      5-min Rain = 0
KBY1 140213Z 05008KT 11/M06 A3008 RMK A01 T01061057  RH  031%=      5-min Rain = 0
KBY1 140214Z 04010KT 11/M06 A3008 RMK A01 T01061057  RH  031%=      5-min Rain = 0
KBY1 140215Z 05011KT 11/M06 A3008 RMK A01 T01051057  RH  031%=      5-min Rain = 0
KBY1 140216Z 05009KT 11/M06 A3008 RMK A01 T01051057  RH  031%=      5-min Rain = 0
KBY1 140217Z 05010KT 11/M06 A3008 RMK A01 T01051057  RH  032%=      5-min Rain = 0
KBY1 140218Z 04009KT 10/M06 A3008 RMK A01 T01041057  RH  032%=      5-min Rain = 0
KBY1 140219Z 05009KT 10/M06 A3009 RMK A01 T01041057  RH  032%=      5-min Rain = 0
KBY1 140220Z 05008KT 10/M06 A3009 RMK A01 T01031057  RH  032%=      5-min Rain = 0
KBY1 140221Z 05009KT 10/M06 A3009 RMK A01 T01021057  RH  032%=      5-min Rain = 0
KBY1 140222Z 05010KT 10/M06 A3009 RMK A01 T01021056  RH  032%=      5-min Rain = 0
KBY1 140223Z 05010KT 10/M06 A3009 RMK A01 T01021056  RH  032%=      5-min Rain = 0
KBY1 140224Z 05009KT 10/M06 A3009 RMK A01 T01021056  RH  032%=      5-min Rain = 0
KBY1 140225Z 06008KT 10/M06 A3009 RMK A01 T01021056  RH  032%=      5-min Rain = 0
KBY1 140226Z 05011KT 10/M06 A3009 RMK A01 T01011056  RH  033%=      5-min Rain = 0
KBY1 140227Z 05012KT 10/M06 A3009 RMK A01 T01011056  RH  033%=      5-min Rain = 0
KBY1 140228Z 04009KT 10/M06 A3009 RMK A01 T01011056  RH  033%=      5-min Rain = 0
KBY1 140229Z 05008KT 10/M06 A3009 RMK A01 T01011056  RH  033%=      5-min Rain = 0
KBY1 140230Z 05008KT 10/M06 A3009 RMK A01 T01001056  RH  033%=      5-min Rain = 0
KBY1 140231Z 05008KT 10/M06 A3009 RMK A01 T00991056  RH  033%=      5-min Rain = 0
KBY1 140232Z 05009KT 10/M06 A3009 RMK A01 T00981055  RH  033%=      5-min Rain = 0
KBY1 140233Z 05009KT 10/M06 A301 RMK A01 T00971055  RH  034%=      5-min Rain = 0
KBY1 140234Z 05011KT 10/M06 A301 RMK A01 T00971055  RH  034%=      5-min Rain = 0
KBY1 140235Z 05009KT 10/M06 A301 RMK A01 T00981055  RH  034%=      5-min Rain = 0
KBY1 140236Z 05009KT 10/M06 A301 RMK A01 T00971055  RH  034%=      5-min Rain = 0
KBY1 140237Z 05009KT 10/M06 A301 RMK A01 T00981055  RH  034%=      5-min Rain = 0
KBY1 140238Z 05010KT 10/M06 A301 RMK A01 T00971055  RH  034%=      5-min Rain = 0
KBY1 140239Z 05009KT 10/M06 A301 RMK A01 T00981055  RH  034%=      5-min Rain = 0
KBY1 140240Z 05008KT 10/M06 A301 RMK A01 T00971055  RH  034%=      5-min Rain = 0
KBY1 140241Z 05009KT 10/M06 A301 RMK A01 T00961055  RH  034%=      5-min Rain = 0
KBY1 140242Z 05009KT 10/M06 A301 RMK A01 T00961055  RH  034%=      5-min Rain = 0
KBY1 140243Z 05009KT 10/M06 A301 RMK A01 T00961055  RH  034%=      5-min Rain = 0
KBY1 140244Z 05009KT 10/M06 A301 RMK A01 T00961055  RH  034%=      5-min Rain = 0
KBY1 140245Z 05009KT 10/M06 A3011 RMK A01 T00961055  RH  034%=      5-min Rain = 0
KBY1 140246Z 05009KT 10/M06 A3011 RMK A01 T00961055  RH  034%=      5-min Rain = 0
KBY1 140247Z 04009KT 10/M06 A3011 RMK A01 T00961055  RH  034%=      5-min Rain = 0
KBY1 140248Z 05009KT 10/M06 A3011 RMK A01 T00951055  RH  034%=      5-min Rain = 0
KBY1 140249Z 04008KT 09/M06 A3011 RMK A01 T00941055  RH  034%=      5-min Rain = 0
KBY1 140250Z 04008KT 09/M06 A3011 RMK A01 T00941055  RH  034%=      5-min Rain = 0
KBY1 140251Z 05009KT 09/M06 A3011 RMK A01 T00931055  RH  035%=      5-min Rain = 0
KBY1 140252Z 04009KT 09/M06 A3011 RMK A01 T00931055  RH  035%=      5-min Rain = 0
KBY1 140253Z 04008KT 09/M06 A3011 RMK A01 T00931055  RH  035%=      5-min Rain = 0
KBY1 140254Z 04009KT 09/M06 A3011 RMK A01 T00931055  RH  035%=      5-min Rain = 0
KBY1 140255Z 04008KT 09/M06 A3011 RMK A01 T00931055  RH  035%=      5-min Rain = 0
KBY1 140256Z 04009KT 09/M06 A3011 RMK A01 T00921055  RH  035%=      5-min Rain = 0
KBY1 140257Z 04010KT 09/M06 A3011 RMK A01 T00921055  RH  035%=      5-min Rain = 0
KBY1 140258Z 04009KT 09/M06 A3011 RMK A01 T00921055  RH  035%=      5-min Rain = 0
KBY1 140259Z 04010KT 09/M06 A3011 RMK A01 T00921055  RH  035%=      5-min Rain = 0
KBY1 140300Z 04010KT 09/M06 A3011 RMK A01 T00921055  RH  035%=      5-min Rain = 0
KBY1 140301Z 04010KT 09/M06 A3011 RMK A01 T00921055  RH  035%=      5-min Rain = 0
KBY1 140302Z 04011KT 09/M06 A3011 RMK A01 T00921055  RH  035%=      5-min Rain = 0
KBY1 140303Z 04011KT 09/M06 A3011 RMK A01 T00921055  RH  035%=      5-min Rain = 0
KBY1 140304Z 04010KT 09/M06 A3011 RMK A01 T00921055  RH  035%=      5-min Rain = 0
KBY1 140305Z 04011KT 09/M06 A3011 RMK A01 T00921055  RH  035%=      5-min Rain = 0
KBY1 140306Z 04011KT 09/M06 A3011 RMK A01 T00921055  RH  035%=      5-min Rain = 0
KBY1 140307Z 04011KT 09/M05 A3011 RMK A01 T00921054  RH  035%=      5-min Rain = 0
KBY1 140308Z 04010KT 09/M06 A3011 RMK A01 T00931055  RH  035%=      5-min Rain = 0
KBY1 140309Z 04010KT 09/M06 A3011 RMK A01 T00921055  RH  035%=      5-min Rain = 0
KBY1 140310Z 04011KT 09/M06 A3011 RMK A01 T00921055  RH  035%=      5-min Rain = 0
KBY1 140311Z 04010KT 09/M06 A3011 RMK A01 T00921055  RH  035%=      5-min Rain = 0
KBY1 140312Z 04011KT 09/M06 A3012 RMK A01 T00911055  RH  035%=      5-min Rain = 0
KBY1 140313Z 04010KT 09/M06 A3012 RMK A01 T00911055  RH  035%=      5-min Rain = 0
KBY1 140314Z 04008KT 09/M06 A3012 RMK A01 T00901055  RH  035%=      5-min Rain = 0
KBY1 140315Z 04009KT 09/M06 A3012 RMK A01 T00891055  RH  036%=      5-min Rain = 0
KBY1 140316Z 04011KT 09/M06 A3012 RMK A01 T00871056  RH  036%=      5-min Rain = 0
KBY1 140317Z 04009KT 09/M06 A3012 RMK A01 T00881055  RH  036%=      5-min Rain = 0
KBY1 140318Z 04009KT 09/M06 A3012 RMK A01 T00871055  RH  036%=      5-min Rain = 0
KBY1 140319Z 04010KT 09/M06 A3012 RMK A01 T00851056  RH  036%=      5-min Rain = 0
KBY1 140320Z 04009KT 09/M06 A3012 RMK A01 T00851055  RH  037%=      5-min Rain = 0
KBY1 140321Z 03009KT 08/M06 A3012 RMK A01 T00841056  RH  037%=      5-min Rain = 0
KBY1 140322Z 03009KT 08/M06 A3012 RMK A01 T00841056  RH  037%=      5-min Rain = 0
KBY1 140323Z 04009KT 08/M06 A3012 RMK A01 T00841056  RH  037%=      5-min Rain = 0
KBY1 140324Z 03009KT 08/M06 A3012 RMK A01 T00831056  RH  037%=      5-min Rain = 0
KBY1 140325Z 04008KT 08/M06 A3012 RMK A01 T00821056  RH  037%=      5-min Rain = 0
KBY1 140326Z 04009KT 08/M06 A3012 RMK A01 T00811056  RH  037%=      5-min Rain = 0
KBY1 140327Z 04007KT 08/M06 A3012 RMK A01 T00811056  RH  037%=      5-min Rain = 0
KBY1 140328Z 04009KT 08/M06 A3012 RMK A01 T00801056  RH  037%=      5-min Rain = 0
KBY1 140329Z 04007KT 08/M06 A3013 RMK A01 T00801056  RH  038%=      5-min Rain = 0
KBY1 140330Z 04007KT 08/M06 A3013 RMK A01 T00801056  RH  038%=      5-min Rain = 0
KBY1 140331Z 04009KT 08/M06 A3013 RMK A01 T00791056  RH  038%=      5-min Rain = 0
KBY1 140332Z 04009KT 08/M06 A3013 RMK A01 T00801056  RH  038%=      5-min Rain = 0
KBY1 140333Z 04008KT 08/M06 A3013 RMK A01 T00821055  RH  037%=      5-min Rain = 0
KBY1 140334Z 05010KT 08/M06 A3013 RMK A01 T00831056  RH  037%=      5-min Rain = 0
KBY1 140335Z 04009KT 08/M06 A3013 RMK A01 T00831055  RH  037%=      5-min Rain = 0
KBY1 140336Z 04009KT 08/M06 A3013 RMK A01 T00831056  RH  037%=      5-min Rain = 0
KBY1 140337Z 04009KT 08/M06 A3013 RMK A01 T00841056  RH  037%=      5-min Rain = 0
KBY1 140338Z 04010KT 08/M06 A3013 RMK A01 T00841056  RH  037%=      5-min Rain = 0
KBY1 140339Z 04009KT 08/M06 A3013 RMK A01 T00841055  RH  037%=      5-min Rain = 0
KBY1 140340Z 04010KT 08/M06 A3013 RMK A01 T00841056  RH  037%=      5-min Rain = 0
KBY1 140341Z 04010KT 08/M06 A3013 RMK A01 T00841056  RH  037%=      5-min Rain = 0
KBY1 140342Z 04009KT 08/M06 A3013 RMK A01 T00841055  RH  037%=      5-min Rain = 0
KBY1 140343Z 04010KT 08/M06 A3013 RMK A01 T00841055  RH  037%=      5-min Rain = 0
KBY1 140344Z 04011KT 08/M06 A3013 RMK A01 T00841056  RH  037%=      5-min Rain = 0
KBY1 140345Z 04010KT 08/M06 A3013 RMK A01 T00841056  RH  037%=      5-min Rain = 0
KBY1 140346Z 04009KT 08/M06 A3013 RMK A01 T00841056  RH  037%=      5-min Rain = 0
KBY1 140347Z 04010KT 08/M06 A3013 RMK A01 T00841056  RH  037%=      5-min Rain = 0
KBY1 140348Z 04009KT 08/M06 A3013 RMK A01 T00841056  RH  037%=      5-min Rain = 0
KBY1 140349Z 05011KT 08/M06 A3013 RMK A01 T00841056  RH  037%=      5-min Rain = 0
KBY1 140350Z 05009KT 08/M06 A3013 RMK A01 T00841056  RH  037%=      5-min Rain = 0
KBY1 140351Z 05009KT 08/M06 A3013 RMK A01 T00841056  RH  037%=      5-min Rain = 0
KBY1 140352Z 05010KT 08/M06 A3013 RMK A01 T00831056  RH  037%=      5-min Rain = 0
KBY1 140353Z 04010KT 08/M06 A3013 RMK A01 T00821056  RH  037%=      5-min Rain = 0
KBY1 140354Z 04010KT 08/M06 A3013 RMK A01 T00821056  RH  037%=      5-min Rain = 0
KBY1 140355Z 04009KT 08/M06 A3013 RMK A01 T00821056  RH  037%=      5-min Rain = 0
KBY1 140356Z 04010KT 08/M06 A3013 RMK A01 T00811056  RH  037%=      5-min Rain = 0
KBY1 140357Z 04010G15KT 08/M06 A3013 RMK A01 T00811056  RH  037%=      5-min Rain = 0
KBY1 140358Z 05012KT 08/M06 A3013 RMK A01 T00811056  RH  037%=      5-min Rain = 0
KBY1 140359Z 04010KT 08/M06 A3013 RMK A01 T00811056  RH  037%=      5-min Rain = 0
KBY1 140400Z 04011KT 08/M06 A3013 RMK A01 T00811057  RH  037%=      5-min Rain = 0
KBY1 140401Z 05010KT 08/M06 A3013 RMK A01 T00801057  RH  037%=      5-min Rain = 0
KBY1 140402Z 05010KT 08/M06 A3014 RMK A01 T00801056  RH  037%=      5-min Rain = 0
KBY1 140403Z 04008KT 08/M06 A3014 RMK A01 T00801057  RH  037%=      5-min Rain = 0
KBY1 140404Z 04009KT 08/M06 A3014 RMK A01 T00791057  RH  038%=      5-min Rain = 0
KBY1 140405Z 04009KT 08/M06 A3014 RMK A01 T00791057  RH  038%=      5-min Rain = 0
KBY1 140406Z 04008KT 08/M06 A3014 RMK A01 T00781057  RH  038%=      5-min Rain = 0
KBY1 140407Z 05009KT 08/M06 A3014 RMK A01 T00771057  RH  038%=      5-min Rain = 0
KBY1 140408Z 05009KT 08/M06 A3014 RMK A01 T00771057  RH  038%=      5-min Rain = 0
KBY1 140409Z 05009KT 08/M06 A3014 RMK A01 T00781057  RH  038%=      5-min Rain = 0
KBY1 140410Z 04008KT 08/M06 A3014 RMK A01 T00771058  RH  038%=      5-min Rain = 0
KBY1 140411Z 04009KT 08/M06 A3014 RMK A01 T00771058  RH  038%=      5-min Rain = 0
KBY1 140412Z 04008KT 08/M06 A3014 RMK A01 T00771058  RH  038%=      5-min Rain = 0
KBY1 140413Z 04009KT 08/M06 A3014 RMK A01 T00761057  RH  038%=      5-min Rain = 0
KBY1 140414Z 05008KT 08/M06 A3015 RMK A01 T00761058  RH  038%=      5-min Rain = 0
KBY1 140415Z 05008KT 08/M06 A3015 RMK A01 T00761058  RH  038%=      5-min Rain = 0
KBY1 140416Z 05009KT 08/M06 A3015 RMK A01 T00751058  RH  038%=      5-min Rain = 0
KBY1 140417Z 05008KT 08/M06 A3015 RMK A01 T00751058  RH  038%=      5-min Rain = 0
KBY1 140418Z 05009KT 07/M06 A3015 RMK A01 T00741058  RH  039%=      5-min Rain = 0
KBY1 140419Z 05009KT 07/M06 A3015 RMK A01 T00741058  RH  039%=      5-min Rain = 0
KBY1 140420Z 05011KT 07/M06 A3015 RMK A01 T00741058  RH  039%=      5-min Rain = 0
KBY1 140421Z 05008KT 07/M06 A3015 RMK A01 T00741058  RH  039%=      5-min Rain = 0
KBY1 140422Z 05008KT 07/M06 A3015 RMK A01 T00741058  RH  039%=      5-min Rain = 0
KBY1 140423Z 05008KT 07/M06 A3015 RMK A01 T00731058  RH  039%=      5-min Rain = 0
KBY1 140424Z 05008KT 07/M06 A3015 RMK A01 T00721059  RH  039%=      5-min Rain = 0
KBY1 140425Z 06007KT 07/M06 A3015 RMK A01 T00721058  RH  039%=      5-min Rain = 0
KBY1 140426Z 06008KT 07/M06 A3015 RMK A01 T00711059  RH  039%=      5-min Rain = 0
KBY1 140427Z 06006KT 07/M06 A3015 RMK A01 T00711058  RH  039%=      5-min Rain = 0
KBY1 140428Z 06006KT 07/M06 A3016 RMK A01 T00701058  RH  040%=      5-min Rain = 0
KBY1 140429Z 06007KT 07/M06 A3016 RMK A01 T00691058  RH  040%=      5-min Rain = 0
KBY1 140430Z 06007KT 07/M06 A3016 RMK A01 T00691059  RH  040%=      5-min Rain = 0
KBY1 140431Z 07006KT 07/M06 A3016 RMK A01 T00691058  RH  040%=      5-min Rain = 0
KBY1 140432Z 06005KT 07/M06 A3016 RMK A01 T00671059  RH  040%=      5-min Rain = 0
KBY1 140433Z 06007KT 07/M06 A3016 RMK A01 T00671058  RH  040%=      5-min Rain = 0
KBY1 140434Z 06006KT 07/M06 A3016 RMK A01 T00661058  RH  041%=      5-min Rain = 0
KBY1 140435Z 06006KT 07/M06 A3016 RMK A01 T00661058  RH  041%=      5-min Rain = 0
KBY1 140436Z 06007KT 07/M06 A3016 RMK A01 T00651058  RH  041%=      5-min Rain = 0
KBY1 140437Z 06006KT 07/M06 A3016 RMK A01 T00651058  RH  041%=      5-min Rain = 0
KBY1 140438Z 07007KT 07/M06 A3016 RMK A01 T00651058  RH  041%=      5-min Rain = 0
KBY1 140439Z 06007KT 06/M06 A3016 RMK A01 T00641057  RH  041%=      5-min Rain = 0
KBY1 140440Z 07005KT 07/M06 A3016 RMK A01 T00651057  RH  041%=      5-min Rain = 0
KBY1 140441Z 07005KT 07/M06 A3016 RMK A01 T00651057  RH  042%=      5-min Rain = 0
KBY1 140442Z 06005KT 06/M06 A3016 RMK A01 T00641057  RH  042%=      5-min Rain = 0
KBY1 140443Z 07006KT 06/M06 A3016 RMK A01 T00631057  RH  042%=      5-min Rain = 0
KBY1 140444Z 05006KT 06/M06 A3016 RMK A01 T00631057  RH  042%=      5-min Rain = 0
KBY1 140445Z 06005KT 06/M06 A3016 RMK A01 T00631056  RH  042%=      5-min Rain = 0
KBY1 140446Z 06006KT 06/M06 A3016 RMK A01 T00621056  RH  042%=      5-min Rain = 0
KBY1 140447Z 06006KT 06/M06 A3016 RMK A01 T00621056  RH  042%=      5-min Rain = 0
KBY1 140448Z 05006KT 06/M06 A3016 RMK A01 T00621056  RH  043%=      5-min Rain = 0
KBY1 140449Z 06006KT 06/M06 A3016 RMK A01 T00621055  RH  043%=      5-min Rain = 0
KBY1 140450Z 06005KT 06/M06 A3016 RMK A01 T00611055  RH  043%=      5-min Rain = 0
KBY1 140451Z 06004KT 06/M06 A3016 RMK A01 T00601056  RH  043%=      5-min Rain = 0
KBY1 140452Z 07005KT 06/M06 A3016 RMK A01 T00591056  RH  043%=      5-min Rain = 0
KBY1 140453Z 06006KT 06/M06 A3016 RMK A01 T00581056  RH  044%=      5-min Rain = 0
KBY1 140454Z 07005KT 06/M06 A3016 RMK A01 T00581055  RH  044%=      5-min Rain = 0
KBY1 140455Z 08003KT 06/M06 A3016 RMK A01 T00581055  RH  044%=      5-min Rain = 0
KBY1 140456Z 10002KT 06/M06 A3016 RMK A01 T00561057  RH  044%=      5-min Rain = 0
KBY1 140457Z 13002KT 05/M06 A3016 RMK A01 T00531058  RH  044%=      5-min Rain = 0
KBY1 140458Z 14002KT 05/M06 A3016 RMK A01 T00521058  RH  045%=      5-min Rain = 0
KBY1 140459Z 17002KT 05/M06 A3016 RMK A01 T00511058  RH  045%=      5-min Rain = 0
KBY1 140500Z 17002KT 05/M06 A3016 RMK A01 T00501059  RH  045%=      5-min Rain = 0
KBY1 140501Z 17002KT 05/M06 A3017 RMK A01 T00471060  RH  046%=      5-min Rain = 0
KBY1 140502Z 16003KT 05/M06 A3017 RMK A01 T00461060  RH  046%=      5-min Rain = 0
KBY1 140503Z 16002KT 05/M06 A3016 RMK A01 T00451059  RH  047%=      5-min Rain = 0
KBY1 140504Z 15001KT 05/M06 A3017 RMK A01 T00451059  RH  047%=      5-min Rain = 0
KBY1 140505Z 18001KT 04/M06 A3016 RMK A01 T00441059  RH  047%=      5-min Rain = 0
KBY1 140506Z 17001KT 04/M06 A3016 RMK A01 T00441058  RH  047%=      5-min Rain = 0
KBY1 140507Z 16001KT 04/M06 A3017 RMK A01 T00441058  RH  048%=      5-min Rain = 0
KBY1 140508Z 13000KT 04/M06 A3017 RMK A01 T00441058  RH  047%=      5-min Rain = 0
KBY1 140509Z 16000KT 04/M06 A3017 RMK A01 T00441058  RH  048%=      5-min Rain = 0
KBY1 140510Z 18001KT 04/M06 A3017 RMK A01 T00441058  RH  048%=      5-min Rain = 0
KBY1 140511Z 17000KT 05/M06 A3017 RMK A01 T00451057  RH  048%=      5-min Rain = 0
KBY1 140512Z 00000KT 05/M06 A3017 RMK A01 T00451058  RH  047%=      5-min Rain = 0
KBY1 140513Z 00000KT 04/M06 A3017 RMK A01 T00441058  RH  047%=      5-min Rain = 0
KBY1 140514Z 16001KT 04/M06 A3017 RMK A01 T00441057  RH  048%=      5-min Rain = 0
KBY1 140515Z 17000KT 04/M06 A3017 RMK A01 T00441056  RH  048%=      5-min Rain = 0
KBY1 140516Z 00000KT 05/M06 A3017 RMK A01 T00461055  RH  048%=      5-min Rain = 0
KBY1 140517Z 17000KT 05/M06 A3017 RMK A01 T00461057  RH  047%=      5-min Rain = 0
KBY1 140518Z 00000KT 04/M06 A3018 RMK A01 T00441058  RH  047%=      5-min Rain = 0
KBY1 140519Z 24000KT 04/M06 A3018 RMK A01 T00431059  RH  048%=      5-min Rain = 0
KBY1 140520Z 26000KT 04/M06 A3018 RMK A01 T00411058  RH  048%=      5-min Rain = 0
KBY1 140521Z 00000KT 04/M06 A3018 RMK A01 T00411057  RH  049%=      5-min Rain = 0
KBY1 140522Z 00000KT 04/M06 A3018 RMK A01 T00411057  RH  049%=      5-min Rain = 0
KBY1 140523Z 35001KT 04/M06 A3018 RMK A01 T00411056  RH  049%=      5-min Rain = 0
KBY1 140524Z 36002KT 04/M06 A3018 RMK A01 T00391057  RH  050%=      5-min Rain = 0
KBY1 140525Z 35002KT 04/M06 A3018 RMK A01 T00391055  RH  050%=      5-min Rain = 0
KBY1 140526Z 00003KT 04/M06 A3018 RMK A01 T00381057  RH  050%=      5-min Rain = 0
KBY1 140527Z 01003KT 04/M05 A3018 RMK A01 T00391051  RH  052%=      5-min Rain = 0
KBY1 140528Z 01002KT 04/M05 A3018 RMK A01 T00411050  RH  051%=      5-min Rain = 0
KBY1 140529Z 01004KT 04/M05 A3018 RMK A01 T00421051  RH  051%=      5-min Rain = 0
KBY1 140530Z 01003KT 05/M04 A3018 RMK A01 T00461043  RH  052%=      5-min Rain = 0
KBY1 140531Z 03002KT 05/M05 A3018 RMK A01 T00491046  RH  050%=      5-min Rain = 0
KBY1 140532Z 03002KT 05/M05 A3018 RMK A01 T00481048  RH  050%=      5-min Rain = 0
KBY1 140533Z 08001KT 05/M05 A3018 RMK A01 T00471050  RH  050%=      5-min Rain = 0
KBY1 140534Z 10000KT 04/M06 A3018 RMK A01 T00421055  RH  049%=      5-min Rain = 0
KBY1 140535Z 08000KT 04/M06 A3018 RMK A01 T00381055  RH  050%=      5-min Rain = 0
KBY1 140536Z 08000KT 03/M06 A3018 RMK A01 T00341059  RH  051%=      5-min Rain = 0
KBY1 140537Z 11000KT 03/M06 A3018 RMK A01 T00291059  RH  052%=      5-min Rain = 0
KBY1 140538Z 17001KT 03/M06 A3018 RMK A01 T00281056  RH  054%=      5-min Rain = 0
KBY1 140539Z 17002KT 03/M06 A3018 RMK A01 T00271055  RH  055%=      5-min Rain = 0
KBY1 140540Z 18002KT 03/M05 A3018 RMK A01 T00281054  RH  055%=      5-min Rain = 0
KBY1 140541Z 19002KT 03/M05 A3018 RMK A01 T00281054  RH  055%=      5-min Rain = 0
KBY1 140542Z 20001KT 03/M05 A3018 RMK A01 T00291053  RH  055%=      5-min Rain = 0
KBY1 140543Z 19000KT 03/M05 A3018 RMK A01 T00301051  RH  055%=      5-min Rain = 0
KBY1 140544Z 00000KT 03/M05 A3018 RMK A01 T00311050  RH  055%=      5-min Rain = 0
KBY1 140545Z 35001KT 03/M05 A3018 RMK A01 T00331049  RH  055%=      5-min Rain = 0
KBY1 140546Z 01002KT 03/M05 A3019 RMK A01 T00341049  RH  054%=      5-min Rain = 0
KBY1 140547Z 00002KT 03/M05 A3018 RMK A01 T00331052  RH  054%=      5-min Rain = 0
KBY1 140548Z 35002KT 03/M05 A3018 RMK A01 T00311052  RH  055%=      5-min Rain = 0
KBY1 140549Z 35002KT 03/M05 A3018 RMK A01 T00281053  RH  055%=      5-min Rain = 0
KBY1 140550Z 35003KT 03/M05 A3018 RMK A01 T00261053  RH  056%=      5-min Rain = 0
KBY1 140551Z 35003KT 02/M05 A3018 RMK A01 T00241053  RH  057%=      5-min Rain = 0
KBY1 140552Z 35003KT 02/M05 A3018 RMK A01 T00231052  RH  058%=      5-min Rain = 0
KBY1 140553Z 34003KT 02/M05 A3018 RMK A01 T00241051  RH  058%=      5-min Rain = 0
KBY1 140554Z 35003KT 02/M05 A3019 RMK A01 T00231052  RH  058%=      5-min Rain = 0
KBY1 140555Z 35003KT 02/M05 A3019 RMK A01 T00231052  RH  058%=      5-min Rain = 0
KBY1 140556Z 36003KT 02/M05 A3019 RMK A01 T00231053  RH  057%=      5-min Rain = 0
KBY1 140557Z 00004KT 02/M05 A3019 RMK A01 T00221053  RH  058%=      5-min Rain = 0
KBY1 140558Z 01004KT 02/M05 A3019 RMK A01 T00221051  RH  058%=      5-min Rain = 0
KBY1 140559Z 01004KT 02/M05 A3019 RMK A01 T00241049  RH  059%=      5-min Rain = 0

Page generated in 0.0708 seconds.